KLM274 LKPR-MMGL
Flight info
| Callsign | KLM274 |
|---|---|
| Flight time | N/A |
| Altitude | 34000 |
| Route | BALTU DCT RAPET T843 DEMAB L604 RELBI L602 RKN L980 TENLI L602 NALAX L46 GETNO DCT BAMLI DCT MOLAK DCT SUNOT/M085F340 DCT 58N020W 58N030W 58N040W 57N050W DCT HOIST/N0490F340 DCT OBSAT DCT MOFAT DCT YXI DCT DERLO DCT DJB DCT FLM DCT BNA DCT MEI DCT TBD M345 AXEXO UM345 PAZ DCT DATUL |
| Aircraft | A359/H-SDE2E3GHIJ3J4J5LM1ORWXY/LB1D1 |
Departure
| Time | 2026-05-05 17:17 |
|---|---|
| Airport | Václav Havel Airport Prague (LKPR) |
Arrival
| Time | N/A |
|---|---|
| Airport | Guadalajara International Airport (MMGL) |
| Time | Latitude | Longitude | Altitude | Speed | Heading |
|---|---|---|---|---|---|
| 2026-05-05 17:00 | 50.10609 | 14.26211 | 1191 ft | 0 kts | 26° |
| 2026-05-05 17:10 | 50.10601 | 14.26205 | 1191 ft | 4 kts | 28° |
| 2026-05-05 17:10 | 50.10578 | 14.26185 | 1192 ft | 4 kts | 32° |
| 2026-05-05 17:10 | 50.10555 | 14.26164 | 1193 ft | 4 kts | 17° |
| 2026-05-05 17:11 | 50.10541 | 14.26155 | 1194 ft | 4 kts | 288° |
| 2026-05-05 17:11 | 50.10540 | 14.26151 | 1194 ft | 0 kts | 259° |
| 2026-05-05 17:14 | 50.10538 | 14.26136 | 1194 ft | 7 kts | 259° |
| 2026-05-05 17:15 | 50.10528 | 14.26058 | 1195 ft | 6 kts | 258° |
| 2026-05-05 17:15 | 50.10523 | 14.25950 | 1193 ft | 15 kts | 282° |
| 2026-05-05 17:15 | 50.10588 | 14.25775 | 1189 ft | 21 kts | 302° |
| 2026-05-05 17:15 | 50.10634 | 14.25568 | 1178 ft | 20 kts | 249° |
| 2026-05-05 17:16 | 50.10590 | 14.25373 | 1173 ft | 21 kts | 260° |
| 2026-05-05 17:16 | 50.10536 | 14.25183 | 1175 ft | 16 kts | 210° |
| 2026-05-05 17:16 | 50.10464 | 14.25244 | 1175 ft | 19 kts | 129° |
| 2026-05-05 17:16 | 50.10255 | 14.25673 | 1191 ft | 80 kts | 126° |
| 2026-05-05 17:17 | 50.09796 | 14.26615 | 1213 ft | 136 kts | 127° |
| 2026-05-05 17:17 | 50.09130 | 14.27995 | 1357 ft | 176 kts | 127° |
| 2026-05-05 17:17 | 50.08371 | 14.29525 | 2016 ft | 181 kts | 123° |
| 2026-05-05 17:17 | 50.07581 | 14.31146 | 2565 ft | 199 kts | 123° |
| 2026-05-05 17:18 | 50.06697 | 14.33021 | 2884 ft | 230 kts | 124° |
| 2026-05-05 17:18 | 50.05688 | 14.35117 | 3407 ft | 249 kts | 125° |
| 2026-05-05 17:18 | 50.04640 | 14.37290 | 3881 ft | 254 kts | 125° |
| 2026-05-05 17:18 | 50.03577 | 14.39505 | 4336 ft | 257 kts | 125° |
| 2026-05-05 17:19 | 50.02507 | 14.41749 | 4841 ft | 259 kts | 126° |
| 2026-05-05 17:19 | 50.01439 | 14.44035 | 5275 ft | 263 kts | 125° |
| 2026-05-05 17:19 | 50.00376 | 14.46352 | 5803 ft | 264 kts | 125° |
| 2026-05-05 17:19 | 49.99315 | 14.48698 | 6259 ft | 267 kts | 125° |
| 2026-05-05 17:20 | 49.98253 | 14.51072 | 6747 ft | 268 kts | 125° |
| 2026-05-05 17:20 | 49.97166 | 14.53439 | 7235 ft | 271 kts | 131° |
| 2026-05-05 17:20 | 49.95687 | 14.55205 | 7688 ft | 270 kts | 155° |
| 2026-05-05 17:20 | 49.93921 | 14.56294 | 8100 ft | 276 kts | 165° |
| 2026-05-05 17:21 | 49.92018 | 14.56660 | 8611 ft | 276 kts | 185° |
| 2026-05-05 17:21 | 49.90192 | 14.55860 | 9180 ft | 275 kts | 209° |
| 2026-05-05 17:21 | 49.88794 | 14.53868 | 9730 ft | 277 kts | 236° |
| 2026-05-05 17:22 | 49.88141 | 14.47829 | 10213 ft | 306 kts | 275° |
| 2026-05-05 17:22 | 49.88548 | 14.44508 | 10401 ft | 321 kts | 281° |
| 2026-05-05 17:22 | 49.89146 | 14.41112 | 10590 ft | 333 kts | 284° |
| 2026-05-05 17:22 | 49.89815 | 14.37600 | 10791 ft | 345 kts | 284° |
| 2026-05-05 17:23 | 49.90488 | 14.33967 | 10992 ft | 356 kts | 283° |
| 2026-05-05 17:23 | 49.91131 | 14.30260 | 11160 ft | 366 kts | 282° |
| 2026-05-05 17:23 | 49.91772 | 14.26327 | 11343 ft | 376 kts | 282° |
| 2026-05-05 17:23 | 49.92382 | 14.22386 | 11535 ft | 385 kts | 281° |
| 2026-05-05 17:24 | 49.92994 | 14.18326 | 11889 ft | 388 kts | 281° |
| 2026-05-05 17:24 | 49.93604 | 14.14223 | 12284 ft | 391 kts | 281° |
| 2026-05-05 17:24 | 49.94223 | 14.10042 | 12660 ft | 394 kts | 281° |
| 2026-05-05 17:24 | 49.94830 | 14.05943 | 13006 ft | 397 kts | 281° |
| 2026-05-05 17:25 | 49.95451 | 14.01751 | 13393 ft | 399 kts | 281° |
| 2026-05-05 17:25 | 49.95661 | 14.00330 | 13524 ft | 400 kts | 281° |
| 2026-05-05 17:25 | 49.96700 | 13.93299 | 14082 ft | 403 kts | 281° |
| 2026-05-05 17:25 | 49.97329 | 13.89039 | 14453 ft | 405 kts | 281° |
| 2026-05-05 17:26 | 49.97965 | 13.84718 | 14819 ft | 406 kts | 281° |
| 2026-05-05 17:26 | 49.98587 | 13.80482 | 15164 ft | 408 kts | 281° |
| 2026-05-05 17:26 | 49.99226 | 13.76112 | 15514 ft | 410 kts | 281° |
| 2026-05-05 17:26 | 49.99850 | 13.71832 | 15809 ft | 413 kts | 281° |
| 2026-05-05 17:27 | 50.00492 | 13.67417 | 16188 ft | 414 kts | 280° |
| 2026-05-05 17:27 | 50.00914 | 13.64518 | 16417 ft | 416 kts | 280° |
| 2026-05-05 17:27 | 50.01551 | 13.60127 | 16772 ft | 417 kts | 280° |
| 2026-05-05 17:27 | 50.02188 | 13.55721 | 17123 ft | 419 kts | 280° |
| 2026-05-05 17:28 | 50.02825 | 13.51292 | 17442 ft | 421 kts | 280° |
| 2026-05-05 17:28 | 50.03463 | 13.46842 | 17776 ft | 423 kts | 280° |
| 2026-05-05 17:28 | 50.04312 | 13.40907 | 18173 ft | 425 kts | 280° |
| 2026-05-05 17:28 | 50.04744 | 13.37872 | 18362 ft | 426 kts | 280° |
| 2026-05-05 17:29 | 50.05386 | 13.33359 | 18643 ft | 428 kts | 280° |
| 2026-05-05 17:29 | 50.06029 | 13.28831 | 18935 ft | 430 kts | 279° |
| 2026-05-05 17:29 | 50.06673 | 13.24285 | 19205 ft | 431 kts | 279° |
| 2026-05-05 17:29 | 50.07317 | 13.19719 | 19495 ft | 433 kts | 279° |
| 2026-05-05 17:30 | 50.07962 | 13.15130 | 19789 ft | 434 kts | 279° |
| 2026-05-05 17:30 | 50.08606 | 13.10530 | 20117 ft | 435 kts | 279° |
| 2026-05-05 17:30 | 50.09251 | 13.05910 | 20381 ft | 438 kts | 279° |
| 2026-05-05 17:30 | 50.09897 | 13.01271 | 20667 ft | 439 kts | 279° |
| 2026-05-05 17:31 | 50.10544 | 12.96609 | 20963 ft | 441 kts | 279° |
| 2026-05-05 17:31 | 50.11191 | 12.91936 | 21245 ft | 443 kts | 279° |
| 2026-05-05 17:31 | 50.11832 | 12.87293 | 21526 ft | 445 kts | 279° |
| 2026-05-05 17:31 | 50.12489 | 12.82513 | 21814 ft | 447 kts | 279° |
| 2026-05-05 17:32 | 50.13131 | 12.77828 | 22107 ft | 448 kts | 278° |
| 2026-05-05 17:32 | 50.13782 | 12.73065 | 22381 ft | 450 kts | 278° |
| 2026-05-05 17:32 | 50.14432 | 12.68283 | 22656 ft | 452 kts | 278° |
| 2026-05-05 17:32 | 50.15082 | 12.63484 | 22905 ft | 454 kts | 278° |
| 2026-05-05 17:33 | 50.15735 | 12.58660 | 23207 ft | 455 kts | 278° |
| 2026-05-05 17:33 | 50.16387 | 12.53829 | 23463 ft | 457 kts | 278° |
| 2026-05-05 17:33 | 50.17040 | 12.48967 | 23679 ft | 459 kts | 278° |
| 2026-05-05 17:33 | 50.17693 | 12.44094 | 23900 ft | 460 kts | 278° |
| 2026-05-05 17:34 | 50.18349 | 12.39180 | 24094 ft | 463 kts | 278° |
| 2026-05-05 17:34 | 50.19012 | 12.34197 | 24331 ft | 464 kts | 278° |
| 2026-05-05 17:34 | 50.19698 | 12.29270 | 24576 ft | 466 kts | 280° |
| 2026-05-05 17:34 | 50.20452 | 12.24405 | 24817 ft | 468 kts | 281° |
| 2026-05-05 17:35 | 50.21250 | 12.19476 | 25049 ft | 469 kts | 281° |
| 2026-05-05 17:35 | 50.22069 | 12.14466 | 25310 ft | 470 kts | 281° |
| 2026-05-05 17:35 | 50.22861 | 12.09574 | 25564 ft | 472 kts | 281° |
| 2026-05-05 17:35 | 50.23655 | 12.04598 | 25813 ft | 473 kts | 281° |
| 2026-05-05 17:36 | 50.24442 | 11.99602 | 26049 ft | 475 kts | 281° |
| 2026-05-05 17:36 | 50.25229 | 11.94569 | 26227 ft | 478 kts | 281° |
| 2026-05-05 17:36 | 50.26017 | 11.89515 | 26482 ft | 479 kts | 281° |
| 2026-05-05 17:36 | 50.26804 | 11.84444 | 26728 ft | 480 kts | 281° |
| 2026-05-05 17:37 | 50.27589 | 11.79362 | 26972 ft | 482 kts | 280° |
| 2026-05-05 17:37 | 50.28375 | 11.74263 | 27210 ft | 483 kts | 280° |
| 2026-05-05 17:37 | 50.29159 | 11.69165 | 27555 ft | 482 kts | 280° |
| 2026-05-05 17:37 | 50.29943 | 11.64054 | 27801 ft | 483 kts | 280° |
| 2026-05-05 17:38 | 50.30724 | 11.58939 | 28006 ft | 485 kts | 280° |
| 2026-05-05 17:38 | 50.32283 | 11.48564 | 28221 ft | 493 kts | 279° |
| 2026-05-05 17:38 | 50.33054 | 11.43337 | 28465 ft | 493 kts | 279° |
| 2026-05-05 17:39 | 50.33825 | 11.38101 | 28695 ft | 494 kts | 279° |
| 2026-05-05 17:39 | 50.34593 | 11.32870 | 29020 ft | 493 kts | 279° |
| 2026-05-05 17:39 | 50.35360 | 11.27645 | 29374 ft | 492 kts | 279° |
| 2026-05-05 17:39 | 50.36124 | 11.22437 | 29665 ft | 491 kts | 279° |
| 2026-05-05 17:40 | 50.36890 | 11.17229 | 29944 ft | 490 kts | 279° |
| 2026-05-05 17:40 | 50.37651 | 11.12022 | 30198 ft | 491 kts | 279° |
| 2026-05-05 17:40 | 50.38411 | 11.06768 | 30116 ft | 498 kts | 279° |
| 2026-05-05 17:40 | 50.39175 | 11.01474 | 30319 ft | 498 kts | 279° |
| 2026-05-05 17:41 | 50.39946 | 10.96133 | 30651 ft | 495 kts | 279° |
| 2026-05-05 17:41 | 50.40692 | 10.90948 | 30951 ft | 493 kts | 279° |
| 2026-05-05 17:41 | 50.41444 | 10.85710 | 31216 ft | 492 kts | 279° |
| 2026-05-05 17:41 | 50.42191 | 10.80481 | 31483 ft | 491 kts | 279° |
| 2026-05-05 17:42 | 50.42933 | 10.75271 | 31739 ft | 490 kts | 278° |
| 2026-05-05 17:42 | 50.43673 | 10.70056 | 31962 ft | 489 kts | 278° |
| 2026-05-05 17:42 | 50.44421 | 10.64844 | 32112 ft | 491 kts | 279° |
| 2026-05-05 17:42 | 50.45176 | 10.59607 | 32242 ft | 492 kts | 279° |
| 2026-05-05 17:43 | 50.45930 | 10.54381 | 32505 ft | 491 kts | 279° |
| 2026-05-05 17:43 | 50.46682 | 10.49165 | 32729 ft | 490 kts | 279° |
| 2026-05-05 17:43 | 50.47429 | 10.43966 | 32956 ft | 489 kts | 278° |
| 2026-05-05 17:43 | 50.48167 | 10.38761 | 33186 ft | 488 kts | 278° |
| 2026-05-05 17:44 | 50.48894 | 10.33557 | 33379 ft | 487 kts | 278° |
| 2026-05-05 17:44 | 50.49614 | 10.28369 | 33582 ft | 486 kts | 278° |
| 2026-05-05 17:44 | 50.50332 | 10.23180 | 33783 ft | 486 kts | 278° |
| 2026-05-05 17:45 | 50.51771 | 10.12726 | 33800 ft | 492 kts | 278° |
| 2026-05-05 17:45 | 50.53273 | 10.02217 | 33796 ft | 495 kts | 282° |
| 2026-05-05 17:46 | 50.56108 | 9.92296 | 33796 ft | 504 kts | 300° |
| 2026-05-05 17:46 | 50.60381 | 9.83497 | 33798 ft | 507 kts | 306° |
| 2026-05-05 17:47 | 50.64918 | 9.74948 | 33796 ft | 510 kts | 307° |
| 2026-05-05 17:47 | 50.69491 | 9.66379 | 33790 ft | 511 kts | 307° |
| 2026-05-05 17:48 | 50.74033 | 9.57746 | 33791 ft | 511 kts | 306° |
| 2026-05-05 17:48 | 50.78554 | 9.49090 | 33791 ft | 511 kts | 306° |
| 2026-05-05 17:49 | 50.83066 | 9.40409 | 33811 ft | 511 kts | 306° |
| 2026-05-05 17:49 | 50.87576 | 9.31707 | 33798 ft | 511 kts | 306° |
| 2026-05-05 17:50 | 50.92080 | 9.22992 | 33798 ft | 511 kts | 306° |
| 2026-05-05 17:50 | 50.96584 | 9.14250 | 33796 ft | 513 kts | 306° |
| 2026-05-05 17:51 | 51.01118 | 9.05415 | 33797 ft | 518 kts | 306° |
| 2026-05-05 17:51 | 51.05684 | 8.96492 | 33800 ft | 521 kts | 306° |
| 2026-05-05 17:52 | 51.10259 | 8.87519 | 33798 ft | 523 kts | 306° |
| 2026-05-05 17:52 | 51.14835 | 8.78518 | 33797 ft | 523 kts | 306° |
| 2026-05-05 17:53 | 51.19401 | 8.69497 | 33807 ft | 523 kts | 306° |
| 2026-05-05 17:53 | 51.23966 | 8.60441 | 33806 ft | 523 kts | 306° |
| 2026-05-05 17:54 | 51.28519 | 8.51379 | 33808 ft | 524 kts | 305° |
| 2026-05-05 17:54 | 51.33069 | 8.42291 | 33818 ft | 523 kts | 305° |
| 2026-05-05 17:55 | 51.37637 | 8.33211 | 33822 ft | 524 kts | 305° |
| 2026-05-05 17:55 | 51.42204 | 8.24132 | 33822 ft | 524 kts | 305° |
| 2026-05-05 17:56 | 51.46768 | 8.15026 | 33830 ft | 524 kts | 305° |
| 2026-05-05 17:56 | 51.51320 | 8.05904 | 33822 ft | 523 kts | 305° |
| 2026-05-05 17:57 | 51.55826 | 7.96840 | 33826 ft | 522 kts | 304° |
| 2026-05-05 17:57 | 51.60370 | 7.87667 | 33828 ft | 521 kts | 304° |
| 2026-05-05 17:58 | 51.64407 | 7.78085 | 33828 ft | 516 kts | 297° |
| 2026-05-05 17:58 | 51.68000 | 7.68189 | 33831 ft | 516 kts | 295° |
| 2026-05-05 17:59 | 51.71539 | 7.58086 | 33831 ft | 517 kts | 295° |
| 2026-05-05 17:59 | 51.75072 | 7.47973 | 33838 ft | 518 kts | 295° |
| 2026-05-05 18:00 | 51.78580 | 7.37961 | 33845 ft | 506 kts | 295° |
| 2026-05-05 18:00 | 51.82020 | 7.28117 | 33857 ft | 503 kts | 295° |
| 2026-05-05 18:00 | 51.83731 | 7.23201 | 33305 ft | 500 kts | 299° |
| 2026-05-05 18:01 | 51.85429 | 7.18321 | 33548 ft | 495 kts | 299° |
| 2026-05-05 18:01 | 51.87107 | 7.13477 | 33761 ft | 492 kts | 302° |
| 2026-05-05 18:01 | 51.88771 | 7.08667 | 34023 ft | 489 kts | 302° |
| 2026-05-05 18:02 | 51.92114 | 6.98989 | 34000 ft | 497 kts | 302° |
| 2026-05-05 18:02 | 51.95500 | 6.89152 | 33999 ft | 504 kts | 302° |
| 2026-05-05 18:03 | 51.98932 | 6.79136 | 33998 ft | 511 kts | 302° |
| 2026-05-05 18:03 | 52.02400 | 6.68976 | 33996 ft | 519 kts | 302° |
| 2026-05-05 18:04 | 52.05917 | 6.58626 | 33999 ft | 527 kts | 302° |
| 2026-05-05 18:04 | 52.09473 | 6.48119 | 33999 ft | 535 kts | 302° |
| 2026-05-05 18:05 | 52.13075 | 6.37428 | 33997 ft | 543 kts | 302° |
| 2026-05-05 18:05 | 52.16720 | 6.26565 | 34000 ft | 550 kts | 301° |
| 2026-05-05 18:06 | 52.20396 | 6.15557 | 33999 ft | 555 kts | 301° |
| 2026-05-05 18:06 | 52.24069 | 6.04503 | 34000 ft | 554 kts | 301° |
| 2026-05-05 18:07 | 52.27731 | 5.93436 | 33999 ft | 555 kts | 301° |
| 2026-05-05 18:07 | 52.31407 | 5.82291 | 34001 ft | 562 kts | 302° |
| 2026-05-05 18:08 | 52.35136 | 5.70936 | 34002 ft | 570 kts | 302° |
| 2026-05-05 18:08 | 52.38898 | 5.59419 | 33998 ft | 578 kts | 302° |
| 2026-05-05 18:09 | 52.42696 | 5.47736 | 33998 ft | 585 kts | 302° |
| 2026-05-05 18:09 | 52.46507 | 5.35944 | 34000 ft | 584 kts | 302° |
| 2026-05-05 18:10 | 52.49685 | 5.26066 | 34001 ft | 584 kts | 302° |
| 2026-05-05 18:10 | 52.53466 | 5.14267 | 34000 ft | 584 kts | 302° |
| 2026-05-05 18:11 | 52.57241 | 5.02436 | 34000 ft | 584 kts | 302° |
| 2026-05-05 18:11 | 52.61003 | 4.90589 | 34000 ft | 584 kts | 302° |
| 2026-05-05 18:12 | 52.64750 | 4.78730 | 34000 ft | 584 kts | 302° |
| 2026-05-05 18:12 | 52.68464 | 4.66917 | 33998 ft | 585 kts | 301° |
| 2026-05-05 18:13 | 52.72192 | 4.55003 | 34000 ft | 585 kts | 301° |
| 2026-05-05 18:13 | 52.75908 | 4.43069 | 34000 ft | 585 kts | 301° |
| 2026-05-05 18:14 | 52.79614 | 4.31107 | 34002 ft | 585 kts | 301° |
| 2026-05-05 18:14 | 52.83310 | 4.19120 | 34000 ft | 585 kts | 301° |
| 2026-05-05 18:15 | 52.86990 | 4.07121 | 33999 ft | 585 kts | 301° |
| 2026-05-05 18:15 | 52.90656 | 3.95111 | 33999 ft | 585 kts | 301° |
| 2026-05-05 18:16 | 52.94318 | 3.83056 | 34001 ft | 585 kts | 301° |
| 2026-05-05 18:16 | 52.97959 | 3.71005 | 33998 ft | 585 kts | 301° |
| 2026-05-05 18:17 | 53.01595 | 3.58913 | 34000 ft | 585 kts | 300° |
| 2026-05-05 18:17 | 53.05218 | 3.46802 | 34002 ft | 585 kts | 300° |
| 2026-05-05 18:18 | 53.08814 | 3.34659 | 33995 ft | 586 kts | 297° |
| 2026-05-05 18:18 | 53.11273 | 3.21667 | 34001 ft | 591 kts | 285° |
| 2026-05-05 18:19 | 53.13127 | 3.08309 | 33999 ft | 592 kts | 283° |
| 2026-05-05 18:19 | 53.14842 | 2.94904 | 34000 ft | 592 kts | 283° |
| 2026-05-05 18:20 | 53.16553 | 2.81485 | 34000 ft | 592 kts | 283° |
| 2026-05-05 18:20 | 53.18274 | 2.68073 | 34000 ft | 592 kts | 283° |
| 2026-05-05 18:21 | 53.19991 | 2.54653 | 34000 ft | 592 kts | 283° |
| 2026-05-05 18:21 | 53.21699 | 2.41218 | 33999 ft | 592 kts | 283° |
| 2026-05-05 18:22 | 53.23384 | 2.27769 | 34000 ft | 592 kts | 283° |
| 2026-05-05 18:22 | 53.25051 | 2.14306 | 34000 ft | 592 kts | 283° |
| 2026-05-05 18:23 | 53.26705 | 2.00829 | 33998 ft | 592 kts | 282° |
| 2026-05-05 18:23 | 53.28344 | 1.87355 | 34000 ft | 592 kts | 282° |
| 2026-05-05 18:24 | 53.29970 | 1.73852 | 34000 ft | 592 kts | 282° |
| 2026-05-05 18:24 | 53.31579 | 1.60356 | 34000 ft | 592 kts | 282° |
| 2026-05-05 18:25 | 53.33189 | 1.46843 | 34001 ft | 592 kts | 283° |
| 2026-05-05 18:25 | 53.35095 | 1.33459 | 34000 ft | 591 kts | 286° |
| 2026-05-05 18:26 | 53.37119 | 1.20113 | 34002 ft | 591 kts | 285° |
| 2026-05-05 18:26 | 53.39086 | 1.06733 | 33997 ft | 592 kts | 285° |
| 2026-05-05 18:27 | 53.40993 | 0.93324 | 33999 ft | 592 kts | 284° |
| 2026-05-05 18:27 | 53.42860 | 0.79982 | 34001 ft | 592 kts | 284° |
| 2026-05-05 18:28 | 53.45668 | 0.59722 | 34000 ft | 592 kts | 284° |
| 2026-05-05 18:28 | 53.47517 | 0.46256 | 34001 ft | 592 kts | 284° |
| 2026-05-05 18:29 | 53.49352 | 0.32799 | 33999 ft | 592 kts | 284° |
| 2026-05-05 18:29 | 53.51160 | 0.19393 | 34000 ft | 592 kts | 284° |
| 2026-05-05 18:30 | 53.52961 | 0.05903 | 34001 ft | 592 kts | 284° |
| 2026-05-05 18:30 | 53.54761 | -0.07695 | 33996 ft | 592 kts | 284° |
| 2026-05-05 18:31 | 53.56531 | -0.21221 | 34000 ft | 592 kts | 283° |
| 2026-05-05 18:31 | 53.58288 | -0.34749 | 34000 ft | 592 kts | 283° |
| 2026-05-05 18:32 | 53.60020 | -0.48206 | 34001 ft | 592 kts | 283° |
| 2026-05-05 18:32 | 53.61743 | -0.61761 | 34001 ft | 592 kts | 283° |
| 2026-05-05 18:33 | 53.63452 | -0.75324 | 34002 ft | 592 kts | 283° |
| 2026-05-05 18:33 | 53.65148 | -0.88903 | 34000 ft | 592 kts | 283° |
| 2026-05-05 18:34 | 53.66834 | -1.02491 | 34001 ft | 592 kts | 283° |
| 2026-05-05 18:34 | 53.68497 | -1.16096 | 34001 ft | 592 kts | 283° |
| 2026-05-05 18:35 | 53.70145 | -1.29715 | 34000 ft | 592 kts | 282° |
| 2026-05-05 18:35 | 53.71780 | -1.43344 | 34001 ft | 592 kts | 282° |
| 2026-05-05 18:36 | 53.73400 | -1.56977 | 34000 ft | 592 kts | 282° |
| 2026-05-05 18:36 | 53.74959 | -1.70637 | 34000 ft | 592 kts | 281° |
| 2026-05-05 18:37 | 53.76419 | -1.84322 | 34000 ft | 592 kts | 279° |
| 2026-05-05 18:37 | 53.77865 | -1.98033 | 33999 ft | 592 kts | 279° |
| 2026-05-05 18:38 | 53.79309 | -2.11727 | 34003 ft | 592 kts | 279° |
| 2026-05-05 18:38 | 53.80746 | -2.25434 | 34002 ft | 592 kts | 280° |
| 2026-05-05 18:39 | 53.82170 | -2.39150 | 33999 ft | 592 kts | 280° |
| 2026-05-05 18:39 | 53.83570 | -2.52810 | 33999 ft | 592 kts | 280° |
| 2026-05-05 18:40 | 53.84970 | -2.66635 | 34001 ft | 592 kts | 280° |
| 2026-05-05 18:40 | 53.86335 | -2.80299 | 34002 ft | 592 kts | 280° |
| 2026-05-05 18:41 | 53.87694 | -2.94066 | 34000 ft | 592 kts | 280° |
| 2026-05-05 18:41 | 53.89038 | -3.07838 | 34000 ft | 593 kts | 280° |
| 2026-05-05 18:42 | 53.90367 | -3.21625 | 33997 ft | 592 kts | 280° |
| 2026-05-05 18:42 | 53.91680 | -3.35422 | 34000 ft | 592 kts | 279° |
| 2026-05-05 18:43 | 53.92978 | -3.49233 | 34001 ft | 592 kts | 279° |
| 2026-05-05 18:43 | 53.94171 | -3.63065 | 33999 ft | 593 kts | 278° |
| 2026-05-05 18:44 | 53.95221 | -3.76934 | 34000 ft | 593 kts | 277° |
| 2026-05-05 18:44 | 53.96260 | -3.90823 | 34001 ft | 593 kts | 277° |
| 2026-05-05 18:45 | 53.97308 | -4.04691 | 34000 ft | 593 kts | 277° |
| 2026-05-05 18:45 | 53.98353 | -4.18576 | 34000 ft | 592 kts | 277° |
| 2026-05-05 18:46 | 53.99384 | -4.32483 | 33998 ft | 593 kts | 277° |
| 2026-05-05 18:46 | 54.00395 | -4.46378 | 34000 ft | 593 kts | 277° |
| 2026-05-05 18:47 | 54.01390 | -4.60277 | 34001 ft | 593 kts | 277° |
| 2026-05-05 18:47 | 54.02370 | -4.74203 | 34001 ft | 593 kts | 277° |
| 2026-05-05 18:48 | 54.03333 | -4.88124 | 34001 ft | 593 kts | 277° |
| 2026-05-05 18:48 | 54.04278 | -5.02036 | 33999 ft | 593 kts | 276° |
| 2026-05-05 18:49 | 54.05209 | -5.15960 | 33999 ft | 593 kts | 276° |
| 2026-05-05 18:49 | 54.06124 | -5.29912 | 33999 ft | 593 kts | 276° |
| 2026-05-05 18:50 | 54.07023 | -5.43867 | 34001 ft | 593 kts | 276° |
| 2026-05-05 18:50 | 54.07905 | -5.57812 | 33999 ft | 593 kts | 276° |
| 2026-05-05 18:51 | 54.08770 | -5.71754 | 34000 ft | 593 kts | 276° |
| 2026-05-05 18:51 | 54.09485 | -5.83473 | 34001 ft | 593 kts | 276° |
| 2026-05-05 18:52 | 54.10322 | -5.97437 | 33999 ft | 592 kts | 275° |
| 2026-05-05 18:52 | 54.11137 | -6.11300 | 33999 ft | 592 kts | 274° |
| 2026-05-05 18:53 | 54.11937 | -6.25255 | 34001 ft | 591 kts | 275° |
| 2026-05-05 18:53 | 54.12724 | -6.39232 | 34000 ft | 592 kts | 275° |
| 2026-05-05 18:54 | 54.13500 | -6.53185 | 34004 ft | 591 kts | 274° |
| 2026-05-05 18:54 | 54.14643 | -6.67068 | 34003 ft | 591 kts | 285° |
| 2026-05-05 18:55 | 54.16831 | -6.80573 | 34000 ft | 591 kts | 288° |
| 2026-05-05 18:55 | 54.19221 | -6.94010 | 33999 ft | 591 kts | 289° |
| 2026-05-05 18:56 | 54.21626 | -7.07434 | 33999 ft | 591 kts | 289° |
| 2026-05-05 18:56 | 54.23991 | -7.20884 | 34001 ft | 591 kts | 288° |
| 2026-05-05 18:57 | 54.26326 | -7.34357 | 34000 ft | 591 kts | 288° |
| 2026-05-05 18:57 | 54.28644 | -7.47872 | 34000 ft | 592 kts | 288° |
| 2026-05-05 18:58 | 54.30944 | -7.61370 | 34001 ft | 591 kts | 288° |
| 2026-05-05 18:58 | 54.33233 | -7.74900 | 34000 ft | 591 kts | 288° |
| 2026-05-05 18:59 | 54.35511 | -7.88450 | 33997 ft | 591 kts | 287° |
| 2026-05-05 18:59 | 54.37768 | -8.02009 | 34001 ft | 592 kts | 287° |
| 2026-05-05 19:00 | 54.40010 | -8.15584 | 34003 ft | 591 kts | 287° |
| 2026-05-05 19:00 | 54.42239 | -8.29165 | 33996 ft | 592 kts | 287° |
| 2026-05-05 19:01 | 54.44450 | -8.42774 | 34000 ft | 591 kts | 287° |
| 2026-05-05 19:01 | 54.46648 | -8.56391 | 33998 ft | 591 kts | 287° |
| 2026-05-05 19:02 | 54.48833 | -8.70031 | 34002 ft | 591 kts | 287° |
| 2026-05-05 19:02 | 54.50998 | -8.83661 | 33998 ft | 591 kts | 287° |
| 2026-05-05 19:03 | 54.53149 | -8.97319 | 34001 ft | 591 kts | 287° |
| 2026-05-05 19:03 | 54.55284 | -9.10990 | 34000 ft | 591 kts | 287° |
| 2026-05-05 19:04 | 54.57407 | -9.24692 | 34000 ft | 591 kts | 287° |
| 2026-05-05 19:04 | 54.59511 | -9.38388 | 34000 ft | 591 kts | 287° |
| 2026-05-05 19:05 | 54.62396 | -9.51539 | 34000 ft | 582 kts | 305° |
| 2026-05-05 19:05 | 54.67101 | -9.62704 | 34000 ft | 574 kts | 315° |
| 2026-05-05 19:06 | 54.72190 | -9.73298 | 34001 ft | 572 kts | 317° |
| 2026-05-05 19:06 | 54.77297 | -9.83754 | 33999 ft | 572 kts | 316° |
| 2026-05-05 19:07 | 54.82404 | -9.94350 | 34000 ft | 573 kts | 316° |
| 2026-05-05 19:07 | 54.87481 | -10.05012 | 34000 ft | 573 kts | 316° |
| 2026-05-05 19:08 | 54.92544 | -10.15719 | 34000 ft | 573 kts | 316° |
| 2026-05-05 19:08 | 54.97598 | -10.26447 | 34000 ft | 573 kts | 315° |
| 2026-05-05 19:09 | 55.02645 | -10.37205 | 34000 ft | 573 kts | 315° |
| 2026-05-05 19:09 | 55.07683 | -10.47988 | 33999 ft | 573 kts | 315° |
| 2026-05-05 19:10 | 55.12712 | -10.58799 | 34000 ft | 574 kts | 315° |
| 2026-05-05 19:10 | 55.17732 | -10.69638 | 34000 ft | 574 kts | 315° |
| 2026-05-05 19:11 | 55.22746 | -10.80514 | 34000 ft | 574 kts | 315° |
| 2026-05-05 19:11 | 55.27751 | -10.91417 | 34000 ft | 574 kts | 315° |
| 2026-05-05 19:12 | 55.32744 | -11.02345 | 33999 ft | 574 kts | 315° |
| 2026-05-05 19:12 | 55.37729 | -11.13303 | 34001 ft | 574 kts | 315° |
| 2026-05-05 19:13 | 55.42706 | -11.24292 | 33999 ft | 574 kts | 315° |
| 2026-05-05 19:13 | 55.47674 | -11.35313 | 34001 ft | 574 kts | 314° |
| 2026-05-05 19:14 | 55.52633 | -11.46361 | 34000 ft | 575 kts | 314° |
| 2026-05-05 19:14 | 55.57585 | -11.57445 | 34000 ft | 575 kts | 314° |
| 2026-05-05 19:15 | 55.62524 | -11.68550 | 34000 ft | 575 kts | 314° |
| 2026-05-05 19:15 | 55.67460 | -11.79699 | 34000 ft | 575 kts | 314° |
| 2026-05-05 19:16 | 55.72350 | -11.90794 | 34000 ft | 575 kts | 314° |
| 2026-05-05 19:16 | 55.77261 | -12.01990 | 34001 ft | 575 kts | 314° |
| 2026-05-05 19:17 | 55.82163 | -12.13215 | 33999 ft | 575 kts | 314° |
| 2026-05-05 19:17 | 55.87060 | -12.24480 | 34000 ft | 575 kts | 314° |
| 2026-05-05 19:18 | 55.91947 | -12.35777 | 33999 ft | 575 kts | 314° |
| 2026-05-05 19:18 | 55.96821 | -12.47093 | 34000 ft | 575 kts | 313° |
| 2026-05-05 19:19 | 56.01687 | -12.58443 | 34000 ft | 575 kts | 313° |
| 2026-05-05 19:19 | 56.06544 | -12.69826 | 34000 ft | 576 kts | 313° |
| 2026-05-05 19:20 | 56.11389 | -12.81236 | 33998 ft | 576 kts | 313° |
| 2026-05-05 19:20 | 56.16223 | -12.92672 | 33999 ft | 576 kts | 313° |
| 2026-05-05 19:21 | 56.21049 | -13.04143 | 34000 ft | 576 kts | 313° |
| 2026-05-05 19:21 | 56.25870 | -13.15657 | 34000 ft | 576 kts | 313° |
| 2026-05-05 19:22 | 56.30675 | -13.27186 | 34001 ft | 576 kts | 313° |
| 2026-05-05 19:22 | 56.35476 | -13.38762 | 34000 ft | 576 kts | 313° |
| 2026-05-05 19:23 | 56.40263 | -13.50356 | 34000 ft | 576 kts | 313° |
| 2026-05-05 19:23 | 56.45041 | -13.61987 | 34000 ft | 576 kts | 312° |
| 2026-05-05 19:24 | 56.49805 | -13.73639 | 34000 ft | 576 kts | 312° |
| 2026-05-05 19:24 | 56.54565 | -13.85337 | 33999 ft | 577 kts | 312° |
| 2026-05-05 19:25 | 56.59309 | -13.97054 | 34000 ft | 577 kts | 312° |
| 2026-05-05 19:25 | 56.64046 | -14.08808 | 34000 ft | 577 kts | 312° |
| 2026-05-05 19:26 | 56.68776 | -14.20601 | 34001 ft | 577 kts | 312° |
| 2026-05-05 19:26 | 56.73491 | -14.32417 | 33999 ft | 577 kts | 311° |
| 2026-05-05 19:27 | 56.78195 | -14.44261 | 33999 ft | 577 kts | 311° |
| 2026-05-05 19:27 | 56.82885 | -14.56128 | 34001 ft | 577 kts | 311° |
| 2026-05-05 19:28 | 56.87566 | -14.68030 | 33999 ft | 577 kts | 311° |
| 2026-05-05 19:28 | 56.92244 | -14.79985 | 34001 ft | 577 kts | 311° |
| 2026-05-05 19:29 | 56.96905 | -14.91955 | 34001 ft | 577 kts | 311° |
| 2026-05-05 19:29 | 57.00998 | -15.04707 | 34000 ft | 586 kts | 298° |
| 2026-05-05 19:30 | 57.04248 | -15.18441 | 34000 ft | 588 kts | 296° |
| 2026-05-05 19:30 | 57.07328 | -15.32372 | 34000 ft | 588 kts | 295° |
| 2026-05-05 19:31 | 57.10375 | -15.46318 | 34000 ft | 588 kts | 295° |
| 2026-05-05 19:31 | 57.13434 | -15.60291 | 34001 ft | 588 kts | 295° |
| 2026-05-05 19:32 | 57.16487 | -15.74253 | 34001 ft | 588 kts | 295° |
| 2026-05-05 19:32 | 57.19529 | -15.88251 | 34000 ft | 588 kts | 295° |
| 2026-05-05 19:33 | 57.22555 | -16.02275 | 34000 ft | 588 kts | 295° |
| 2026-05-05 19:33 | 57.25564 | -16.16324 | 34000 ft | 588 kts | 294° |
| 2026-05-05 19:34 | 57.28052 | -16.28014 | 34001 ft | 588 kts | 294° |
| 2026-05-05 19:35 | 57.32519 | -16.49169 | 34000 ft | 588 kts | 294° |
| 2026-05-05 19:35 | 57.35477 | -16.63299 | 34001 ft | 588 kts | 294° |
| 2026-05-05 19:36 | 57.38419 | -16.77452 | 34000 ft | 589 kts | 294° |
| 2026-05-05 19:36 | 57.41345 | -16.91627 | 34000 ft | 590 kts | 294° |
| 2026-05-05 19:37 | 57.44282 | -17.05945 | 33999 ft | 597 kts | 294° |
| 2026-05-05 19:37 | 57.47230 | -17.20428 | 33999 ft | 601 kts | 293° |
| 2026-05-05 19:38 | 57.50166 | -17.34969 | 34000 ft | 601 kts | 293° |
| 2026-05-05 19:38 | 57.53085 | -17.49529 | 34000 ft | 600 kts | 293° |
| 2026-05-05 19:39 | 57.55989 | -17.64119 | 33999 ft | 601 kts | 293° |
| 2026-05-05 19:39 | 57.58875 | -17.78724 | 33999 ft | 601 kts | 293° |
| 2026-05-05 19:40 | 57.61743 | -17.93343 | 33999 ft | 601 kts | 292° |
| 2026-05-05 19:40 | 57.64596 | -18.07999 | 34000 ft | 601 kts | 292° |
| 2026-05-05 19:41 | 57.67412 | -18.22575 | 33999 ft | 601 kts | 292° |
| 2026-05-05 19:41 | 57.70230 | -18.37268 | 34000 ft | 601 kts | 292° |
| 2026-05-05 19:42 | 57.73031 | -18.51990 | 34000 ft | 600 kts | 292° |
| 2026-05-05 19:42 | 57.75785 | -18.66583 | 34002 ft | 590 kts | 292° |
| 2026-05-05 19:43 | 57.78498 | -18.81064 | 33999 ft | 589 kts | 292° |
| 2026-05-05 19:43 | 57.81200 | -18.95576 | 34001 ft | 590 kts | 292° |
| 2026-05-05 19:44 | 57.83883 | -19.10107 | 33997 ft | 590 kts | 291° |
| 2026-05-05 19:44 | 57.86549 | -19.24663 | 34001 ft | 590 kts | 291° |
| 2026-05-05 19:45 | 57.89201 | -19.39253 | 34000 ft | 590 kts | 291° |
| 2026-05-05 19:45 | 57.91834 | -19.53851 | 33999 ft | 590 kts | 291° |
| 2026-05-05 19:46 | 57.94453 | -19.68490 | 34001 ft | 590 kts | 291° |
| 2026-05-05 19:46 | 57.97053 | -19.83138 | 33999 ft | 590 kts | 291° |
| 2026-05-05 19:47 | 57.99518 | -19.97888 | 33997 ft | 592 kts | 283° |
| 2026-05-05 19:47 | 58.00571 | -20.13261 | 34000 ft | 592 kts | 275° |
| 2026-05-05 19:48 | 58.01193 | -20.28748 | 34001 ft | 592 kts | 273° |
| 2026-05-05 19:48 | 58.01710 | -20.44263 | 34000 ft | 592 kts | 273° |
| 2026-05-05 19:49 | 58.02226 | -20.59781 | 34001 ft | 593 kts | 273° |
| 2026-05-05 19:49 | 58.02747 | -20.75288 | 33999 ft | 592 kts | 273° |
| 2026-05-05 19:50 | 58.03258 | -20.90815 | 34000 ft | 592 kts | 273° |
| 2026-05-05 19:50 | 58.03750 | -21.06330 | 34000 ft | 592 kts | 272° |
| 2026-05-05 19:51 | 58.04221 | -21.21855 | 33999 ft | 592 kts | 272° |
| 2026-05-05 19:51 | 58.04672 | -21.37379 | 34000 ft | 592 kts | 272° |
| 2026-05-05 19:52 | 58.05101 | -21.52795 | 33999 ft | 592 kts | 272° |
| 2026-05-05 19:52 | 58.05515 | -21.68342 | 34001 ft | 592 kts | 272° |
| 2026-05-05 19:53 | 58.05909 | -21.83873 | 34000 ft | 592 kts | 272° |
| 2026-05-05 19:53 | 58.06285 | -21.99421 | 34001 ft | 592 kts | 272° |
| 2026-05-05 19:54 | 58.06642 | -22.14957 | 33999 ft | 592 kts | 271° |
| 2026-05-05 19:54 | 58.06980 | -22.30503 | 34001 ft | 592 kts | 271° |
| 2026-05-05 19:55 | 58.07299 | -22.46059 | 33999 ft | 592 kts | 271° |
| 2026-05-05 19:55 | 58.07599 | -22.61608 | 34000 ft | 592 kts | 271° |
| 2026-05-05 19:56 | 58.07880 | -22.77163 | 33999 ft | 592 kts | 271° |
| 2026-05-05 19:56 | 58.08142 | -22.92717 | 34000 ft | 592 kts | 271° |
| 2026-05-05 19:57 | 58.08385 | -23.08268 | 33999 ft | 592 kts | 271° |
| 2026-05-05 19:57 | 58.08609 | -23.23818 | 34000 ft | 592 kts | 270° |
| 2026-05-05 19:58 | 58.08815 | -23.39385 | 34000 ft | 592 kts | 270° |
| 2026-05-05 19:58 | 58.09001 | -23.54940 | 33999 ft | 592 kts | 270° |
| 2026-05-05 19:59 | 58.09168 | -23.70498 | 34001 ft | 592 kts | 270° |
| 2026-05-05 19:59 | 58.09317 | -23.86059 | 34001 ft | 592 kts | 270° |
| 2026-05-05 20:00 | 58.09446 | -24.01628 | 34000 ft | 592 kts | 270° |
| 2026-05-05 20:00 | 58.09556 | -24.17189 | 34001 ft | 592 kts | 269° |
| 2026-05-05 20:01 | 58.09648 | -24.32754 | 34000 ft | 592 kts | 269° |
| 2026-05-05 20:01 | 58.09720 | -24.48314 | 34000 ft | 592 kts | 269° |
| 2026-05-05 20:02 | 58.09774 | -24.63877 | 34000 ft | 592 kts | 269° |
| 2026-05-05 20:02 | 58.09808 | -24.79432 | 33999 ft | 592 kts | 269° |
| 2026-05-05 20:03 | 58.09824 | -24.94996 | 34001 ft | 592 kts | 269° |
| 2026-05-05 20:03 | 58.09821 | -25.10564 | 34000 ft | 592 kts | 269° |
| 2026-05-05 20:04 | 58.09798 | -25.26113 | 34000 ft | 592 kts | 268° |
| 2026-05-05 20:04 | 58.09757 | -25.41463 | 33998 ft | 586 kts | 269° |
| 2026-05-05 20:04 | 58.09731 | -25.49091 | 33998 ft | 574 kts | 269° |
| 2026-05-05 20:05 | 58.09700 | -25.56573 | 33999 ft | 564 kts | 269° |
| 2026-05-05 20:05 | 58.09626 | -25.71180 | 33999 ft | 548 kts | 269° |
| 2026-05-05 20:06 | 58.09537 | -25.85442 | 33998 ft | 537 kts | 269° |
| 2026-05-05 20:06 | 58.09435 | -25.99378 | 33997 ft | 521 kts | 269° |
| 2026-05-05 20:06 | 58.09379 | -26.06153 | 35013 ft | 512 kts | 270° |
| 2026-05-05 20:07 | 58.09319 | -26.12729 | 34815 ft | 498 kts | 274° |
| 2026-05-05 20:07 | 58.09252 | -26.19229 | 34585 ft | 479 kts | 274° |
| 2026-05-05 20:07 | 58.09184 | -26.25416 | 34348 ft | 464 kts | 274° |
| 2026-05-05 20:07 | 58.09119 | -26.31450 | 34201 ft | 454 kts | 274° |
| 2026-05-05 20:08 | 58.09057 | -26.37407 | 34189 ft | 453 kts | 274° |
| 2026-05-05 20:08 | 58.08935 | -26.49343 | 34185 ft | 455 kts | 274° |
| 2026-05-05 20:09 | 58.08798 | -26.61219 | 34189 ft | 455 kts | 274° |
| 2026-05-05 20:09 | 58.08642 | -26.73171 | 34155 ft | 455 kts | 273° |
| 2026-05-05 20:10 | 58.08475 | -26.85155 | 34188 ft | 458 kts | 273° |
| 2026-05-05 20:10 | 58.08294 | -26.97215 | 34190 ft | 459 kts | 273° |
| 2026-05-05 20:11 | 58.08101 | -27.09268 | 34183 ft | 459 kts | 273° |
| 2026-05-05 20:11 | 58.07897 | -27.21315 | 34171 ft | 459 kts | 273° |
| 2026-05-05 20:12 | 58.07683 | -27.33370 | 34196 ft | 459 kts | 273° |
| 2026-05-05 20:12 | 58.07457 | -27.45394 | 34187 ft | 458 kts | 272° |
| 2026-05-05 20:13 | 58.07220 | -27.57465 | 34184 ft | 460 kts | 272° |
| 2026-05-05 20:13 | 58.06970 | -27.69535 | 34185 ft | 460 kts | 272° |
| 2026-05-05 20:14 | 58.06709 | -27.81614 | 34193 ft | 460 kts | 272° |
| 2026-05-05 20:14 | 58.06436 | -27.93703 | 34191 ft | 460 kts | 272° |
| 2026-05-05 20:15 | 58.06152 | -28.05781 | 34192 ft | 460 kts | 272° |
| 2026-05-05 20:15 | 58.05858 | -28.17881 | 34193 ft | 464 kts | 271° |
| 2026-05-05 20:16 | 58.05549 | -28.30064 | 34184 ft | 465 kts | 271° |
| 2026-05-05 20:16 | 58.05226 | -28.42244 | 34189 ft | 465 kts | 271° |
| 2026-05-05 20:17 | 58.04892 | -28.54433 | 34189 ft | 465 kts | 271° |
| 2026-05-05 20:17 | 58.04548 | -28.66607 | 34196 ft | 465 kts | 271° |
| 2026-05-05 20:18 | 58.04192 | -28.78783 | 34193 ft | 465 kts | 270° |
| 2026-05-05 20:18 | 58.03824 | -28.91013 | 34193 ft | 467 kts | 270° |
| 2026-05-05 20:19 | 58.03507 | -29.01171 | 34201 ft | 466 kts | 270° |
| 2026-05-05 20:19 | 58.03116 | -29.13391 | 34189 ft | 466 kts | 270° |
| 2026-05-05 20:20 | 58.02713 | -29.25601 | 34191 ft | 466 kts | 270° |
| 2026-05-05 20:20 | 58.02299 | -29.37805 | 34196 ft | 466 kts | 270° |
| 2026-05-05 20:21 | 58.01874 | -29.50029 | 34196 ft | 469 kts | 269° |
| 2026-05-05 20:21 | 58.01434 | -29.62330 | 34197 ft | 471 kts | 269° |
| 2026-05-05 20:22 | 58.00979 | -29.74656 | 34200 ft | 471 kts | 269° |
| 2026-05-05 20:22 | 58.00513 | -29.86974 | 34201 ft | 471 kts | 269° |
| 2026-05-05 20:23 | 58.00122 | -29.99280 | 34199 ft | 469 kts | 274° |
| 2026-05-05 20:23 | 58.00432 | -30.11530 | 34183 ft | 467 kts | 276° |
| 2026-05-05 20:24 | 58.00892 | -30.23799 | 34200 ft | 471 kts | 277° |
| 2026-05-05 20:24 | 58.01368 | -30.36140 | 34205 ft | 472 kts | 276° |
| 2026-05-05 20:25 | 58.01823 | -30.48497 | 34203 ft | 472 kts | 276° |
| 2026-05-05 20:25 | 58.02257 | -30.60850 | 34203 ft | 472 kts | 276° |
| 2026-05-05 20:26 | 58.02676 | -30.73204 | 34203 ft | 472 kts | 276° |
| 2026-05-05 20:26 | 58.03081 | -30.85488 | 34182 ft | 472 kts | 276° |
| 2026-05-05 20:27 | 58.03484 | -30.97999 | 34208 ft | 478 kts | 275° |
| 2026-05-05 20:27 | 58.03873 | -31.10538 | 34205 ft | 479 kts | 275° |
| 2026-05-05 20:28 | 58.04250 | -31.23095 | 34211 ft | 479 kts | 275° |
| 2026-05-05 20:28 | 58.04614 | -31.35623 | 34203 ft | 478 kts | 275° |
| 2026-05-05 20:29 | 58.04965 | -31.48136 | 34200 ft | 477 kts | 275° |
| 2026-05-05 20:29 | 58.05305 | -31.60659 | 34190 ft | 477 kts | 274° |
| 2026-05-05 20:30 | 58.05636 | -31.73244 | 34203 ft | 483 kts | 274° |
| 2026-05-05 20:30 | 58.05954 | -31.85932 | 34211 ft | 484 kts | 274° |
| 2026-05-05 20:31 | 58.06260 | -31.98615 | 34211 ft | 484 kts | 274° |
| 2026-05-05 20:31 | 58.06551 | -32.11225 | 34209 ft | 484 kts | 274° |
| 2026-05-05 20:32 | 58.06834 | -32.24000 | 34210 ft | 484 kts | 274° |
| 2026-05-05 20:32 | 58.07101 | -32.36599 | 34203 ft | 484 kts | 273° |
| 2026-05-05 20:33 | 58.07359 | -32.49359 | 34206 ft | 488 kts | 272° |
| 2026-05-05 20:33 | 58.07604 | -32.62164 | 34209 ft | 488 kts | 272° |
| 2026-05-05 20:34 | 58.07835 | -32.74984 | 34212 ft | 488 kts | 272° |
| 2026-05-05 20:34 | 58.08055 | -32.87805 | 34212 ft | 488 kts | 272° |
| 2026-05-05 20:35 | 58.08262 | -33.00634 | 34208 ft | 488 kts | 272° |
| 2026-05-05 20:35 | 58.08456 | -33.13460 | 34212 ft | 488 kts | 272° |
| 2026-05-05 20:36 | 58.08636 | -33.26279 | 34214 ft | 488 kts | 272° |
| 2026-05-05 20:36 | 58.08805 | -33.39121 | 34213 ft | 488 kts | 272° |
| 2026-05-05 20:37 | 58.08959 | -33.51936 | 34207 ft | 488 kts | 272° |
| 2026-05-05 20:37 | 58.09101 | -33.64745 | 34210 ft | 487 kts | 272° |
| 2026-05-05 20:38 | 58.09231 | -33.77543 | 34214 ft | 487 kts | 272° |
| 2026-05-05 20:38 | 58.09348 | -33.90371 | 34214 ft | 489 kts | 271° |
| 2026-05-05 20:39 | 58.09452 | -34.03283 | 34212 ft | 492 kts | 271° |
| 2026-05-05 20:39 | 58.09544 | -34.16225 | 34212 ft | 492 kts | 271° |
| 2026-05-05 20:40 | 58.09622 | -34.29164 | 34215 ft | 492 kts | 271° |
| 2026-05-05 20:40 | 58.09687 | -34.42117 | 34213 ft | 493 kts | 270° |
| 2026-05-05 20:41 | 58.09739 | -34.55066 | 34214 ft | 493 kts | 271° |
| 2026-05-05 20:41 | 58.09778 | -34.68031 | 34213 ft | 495 kts | 270° |
| 2026-05-05 20:42 | 58.09804 | -34.81098 | 34214 ft | 498 kts | 270° |
| 2026-05-05 20:42 | 58.09817 | -34.94179 | 34214 ft | 498 kts | 269° |
| 2026-05-05 20:43 | 58.09816 | -35.07287 | 34213 ft | 498 kts | 269° |
| 2026-05-05 20:43 | 58.09802 | -35.20371 | 34210 ft | 498 kts | 269° |
| 2026-05-05 20:44 | 58.09775 | -35.33365 | 34221 ft | 498 kts | 269° |
| 2026-05-05 20:44 | 58.09734 | -35.46568 | 34211 ft | 500 kts | 269° |
| 2026-05-05 20:45 | 58.09646 | -35.66233 | 34211 ft | 502 kts | 268° |
| 2026-05-05 20:45 | 58.09571 | -35.79427 | 34211 ft | 502 kts | 268° |
| 2026-05-05 20:46 | 58.09482 | -35.92631 | 34211 ft | 502 kts | 268° |
| 2026-05-05 20:46 | 58.09380 | -36.05820 | 34211 ft | 502 kts | 268° |
| 2026-05-05 20:47 | 58.09264 | -36.19025 | 34209 ft | 504 kts | 268° |
| 2026-05-05 20:47 | 58.09133 | -36.32290 | 34208 ft | 505 kts | 268° |
| 2026-05-05 20:48 | 58.08988 | -36.45569 | 34211 ft | 505 kts | 267° |
| 2026-05-05 20:48 | 58.08830 | -36.58844 | 34211 ft | 505 kts | 267° |
| 2026-05-05 20:49 | 58.08658 | -36.72119 | 34211 ft | 506 kts | 267° |
| 2026-05-05 20:49 | 58.08472 | -36.85422 | 34219 ft | 506 kts | 267° |
| 2026-05-05 20:50 | 58.08271 | -36.98754 | 34205 ft | 509 kts | 267° |
| 2026-05-05 20:50 | 58.08056 | -37.12124 | 34206 ft | 509 kts | 266° |
| 2026-05-05 20:51 | 58.07826 | -37.25505 | 34205 ft | 509 kts | 266° |
| 2026-05-05 20:51 | 58.07583 | -37.38882 | 34205 ft | 509 kts | 266° |
| 2026-05-05 20:52 | 58.07326 | -37.52245 | 34203 ft | 509 kts | 266° |
| 2026-05-05 20:52 | 58.07055 | -37.65620 | 34205 ft | 510 kts | 265° |
| 2026-05-05 20:53 | 58.06769 | -37.78975 | 34201 ft | 513 kts | 265° |
| 2026-05-05 20:53 | 58.06467 | -37.92449 | 34202 ft | 514 kts | 265° |
| 2026-05-05 20:54 | 58.06151 | -38.05918 | 34196 ft | 514 kts | 265° |
| 2026-05-05 20:54 | 58.05821 | -38.19395 | 34198 ft | 514 kts | 265° |
| 2026-05-05 20:55 | 58.05476 | -38.32864 | 34216 ft | 514 kts | 265° |
| 2026-05-05 20:55 | 58.05118 | -38.46352 | 34192 ft | 515 kts | 264° |
| 2026-05-05 20:56 | 58.04743 | -38.59865 | 34196 ft | 516 kts | 264° |
| 2026-05-05 20:56 | 58.04353 | -38.73394 | 34192 ft | 516 kts | 264° |
| 2026-05-05 20:57 | 58.03949 | -38.86910 | 34184 ft | 517 kts | 264° |
| 2026-05-05 20:57 | 58.03531 | -39.00454 | 34182 ft | 517 kts | 264° |
| 2026-05-05 20:58 | 58.03099 | -39.13997 | 34194 ft | 518 kts | 263° |
| 2026-05-05 20:58 | 58.02648 | -39.27609 | 34177 ft | 520 kts | 263° |
| 2026-05-05 20:59 | 58.02183 | -39.41231 | 34179 ft | 521 kts | 263° |
| 2026-05-05 20:59 | 58.01704 | -39.54867 | 34173 ft | 520 kts | 263° |
| 2026-05-05 21:00 | 58.01210 | -39.68479 | 34176 ft | 521 kts | 263° |
| 2026-05-05 21:00 | 58.00701 | -39.82104 | 34182 ft | 521 kts | 263° |
| 2026-05-05 21:01 | 58.00180 | -39.95670 | 34179 ft | 525 kts | 262° |
| 2026-05-05 21:01 | 57.99567 | -40.09387 | 34170 ft | 525 kts | 260° |
| 2026-05-05 21:02 | 57.98716 | -40.23037 | 34182 ft | 524 kts | 259° |
| 2026-05-05 21:02 | 57.97829 | -40.36691 | 34179 ft | 525 kts | 259° |
| 2026-05-05 21:03 | 57.96962 | -40.50330 | 34171 ft | 524 kts | 259° |
| 2026-05-05 21:03 | 57.96100 | -40.63966 | 34163 ft | 524 kts | 259° |
| 2026-05-05 21:04 | 57.95376 | -40.75298 | 34155 ft | 524 kts | 259° |
| 2026-05-05 21:04 | 57.94490 | -40.88934 | 34160 ft | 524 kts | 259° |
| 2026-05-05 21:05 | 57.93590 | -41.02551 | 34142 ft | 524 kts | 259° |
| 2026-05-05 21:05 | 57.92674 | -41.16159 | 34158 ft | 524 kts | 259° |
| 2026-05-05 21:06 | 57.91743 | -41.29768 | 34148 ft | 525 kts | 258° |
| 2026-05-05 21:06 | 57.90791 | -41.43447 | 34139 ft | 529 kts | 258° |
| 2026-05-05 21:07 | 57.89822 | -41.57169 | 34132 ft | 530 kts | 258° |
| 2026-05-05 21:07 | 57.88838 | -41.70907 | 34132 ft | 530 kts | 258° |
| 2026-05-05 21:08 | 57.87840 | -41.84608 | 34121 ft | 530 kts | 257° |
| 2026-05-05 21:08 | 57.86825 | -41.98327 | 34177 ft | 530 kts | 257° |
| 2026-05-05 21:09 | 57.85791 | -42.12076 | 34115 ft | 535 kts | 257° |
| 2026-05-05 21:09 | 57.84732 | -42.25948 | 34115 ft | 537 kts | 257° |
| 2026-05-05 21:10 | 57.83661 | -42.39819 | 34107 ft | 537 kts | 256° |
| 2026-05-05 21:10 | 57.82575 | -42.53671 | 34107 ft | 537 kts | 256° |
| 2026-05-05 21:11 | 57.81473 | -42.67510 | 34110 ft | 536 kts | 256° |
| 2026-05-05 21:11 | 57.80351 | -42.81391 | 34101 ft | 541 kts | 256° |
| 2026-05-05 21:12 | 57.79207 | -42.95345 | 34102 ft | 542 kts | 256° |
| 2026-05-05 21:12 | 57.78056 | -43.09214 | 34092 ft | 542 kts | 256° |
| 2026-05-05 21:13 | 57.76881 | -43.23169 | 34095 ft | 542 kts | 256° |
| 2026-05-05 21:13 | 57.75690 | -43.37120 | 34085 ft | 542 kts | 255° |
| 2026-05-05 21:14 | 57.74484 | -43.51064 | 34087 ft | 544 kts | 255° |
| 2026-05-05 21:14 | 57.73259 | -43.65032 | 34077 ft | 544 kts | 255° |
| 2026-05-05 21:15 | 57.72018 | -43.78999 | 34081 ft | 544 kts | 255° |
| 2026-05-05 21:15 | 57.70763 | -43.92950 | 34072 ft | 544 kts | 255° |
| 2026-05-05 21:16 | 57.69493 | -44.06884 | 34074 ft | 544 kts | 255° |
| 2026-05-05 21:16 | 57.68211 | -44.20772 | 34063 ft | 539 kts | 255° |
| 2026-05-05 21:17 | 57.66924 | -44.34544 | 34064 ft | 539 kts | 255° |
| 2026-05-05 21:17 | 57.65615 | -44.48352 | 34057 ft | 540 kts | 255° |
| 2026-05-05 21:18 | 57.64294 | -44.62139 | 34057 ft | 540 kts | 255° |
| 2026-05-05 21:18 | 57.62958 | -44.75921 | 34050 ft | 540 kts | 254° |
| 2026-05-05 21:19 | 57.61611 | -44.89655 | 34047 ft | 534 kts | 255° |
| 2026-05-05 21:19 | 57.60269 | -45.03192 | 34040 ft | 529 kts | 255° |
| 2026-05-05 21:20 | 57.58912 | -45.16691 | 34037 ft | 529 kts | 255° |
| 2026-05-05 21:20 | 57.57543 | -45.30161 | 34026 ft | 529 kts | 255° |
| 2026-05-05 21:21 | 57.56166 | -45.43562 | 34029 ft | 531 kts | 255° |
| 2026-05-05 21:21 | 57.54761 | -45.57084 | 34017 ft | 530 kts | 255° |
| 2026-05-05 21:22 | 57.53356 | -45.70492 | 34017 ft | 527 kts | 255° |
| 2026-05-05 21:22 | 57.51938 | -45.83853 | 34003 ft | 527 kts | 255° |
| 2026-05-05 21:23 | 57.50505 | -45.97210 | 34009 ft | 527 kts | 255° |
| 2026-05-05 21:23 | 57.49057 | -46.10563 | 33987 ft | 527 kts | 255° |
| 2026-05-05 21:24 | 57.47597 | -46.23889 | 34000 ft | 526 kts | 255° |
| 2026-05-05 21:24 | 57.46130 | -46.37151 | 33980 ft | 523 kts | 255° |
| 2026-05-05 21:25 | 57.44650 | -46.50370 | 33974 ft | 524 kts | 255° |
| 2026-05-05 21:25 | 57.43153 | -46.63617 | 33961 ft | 524 kts | 254° |
| 2026-05-05 21:26 | 57.41643 | -46.76855 | 33961 ft | 524 kts | 254° |
| 2026-05-05 21:26 | 57.40117 | -46.90093 | 33975 ft | 524 kts | 254° |
| 2026-05-05 21:27 | 57.38587 | -47.03252 | 33947 ft | 520 kts | 254° |
| 2026-05-05 21:27 | 57.37050 | -47.16337 | 33947 ft | 520 kts | 254° |
| 2026-05-05 21:28 | 57.35497 | -47.29412 | 33943 ft | 520 kts | 254° |
| 2026-05-05 21:28 | 57.33932 | -47.42472 | 33929 ft | 519 kts | 254° |
| 2026-05-05 21:29 | 57.32353 | -47.55525 | 33939 ft | 521 kts | 254° |
| 2026-05-05 21:29 | 57.30756 | -47.68606 | 33930 ft | 522 kts | 254° |
| 2026-05-05 21:30 | 57.29143 | -47.81698 | 33916 ft | 522 kts | 253° |
| 2026-05-05 21:30 | 57.27519 | -47.94764 | 33916 ft | 522 kts | 253° |
| 2026-05-05 21:31 | 57.25879 | -48.07831 | 33899 ft | 522 kts | 253° |
| 2026-05-05 21:31 | 57.24227 | -48.20874 | 33896 ft | 522 kts | 253° |
| 2026-05-05 21:32 | 57.22563 | -48.33891 | 33890 ft | 520 kts | 253° |
| 2026-05-05 21:32 | 57.20895 | -48.46833 | 33886 ft | 518 kts | 253° |
| 2026-05-05 21:33 | 57.19211 | -48.59766 | 33870 ft | 519 kts | 253° |
| 2026-05-05 21:33 | 57.17519 | -48.72651 | 33869 ft | 521 kts | 253° |
| 2026-05-05 21:34 | 57.15792 | -48.85696 | 33857 ft | 521 kts | 253° |
| 2026-05-05 21:34 | 57.14075 | -48.98558 | 33859 ft | 519 kts | 253° |
| 2026-05-05 21:35 | 57.12342 | -49.11430 | 33841 ft | 517 kts | 253° |
| 2026-05-05 21:35 | 57.10598 | -49.24260 | 33842 ft | 517 kts | 253° |
| 2026-05-05 21:36 | 57.08829 | -49.37171 | 33832 ft | 517 kts | 253° |
| 2026-05-05 21:36 | 57.07073 | -49.49878 | 33826 ft | 517 kts | 253° |
| 2026-05-05 21:37 | 57.05289 | -49.62680 | 33815 ft | 517 kts | 253° |
| 2026-05-05 21:37 | 57.03495 | -49.75455 | 33814 ft | 517 kts | 253° |
| 2026-05-05 21:38 | 57.01685 | -49.88239 | 33805 ft | 517 kts | 253° |
| 2026-05-05 21:38 | 56.99676 | -50.00892 | 33802 ft | 515 kts | 246° |
| 2026-05-05 21:39 | 56.96926 | -50.12993 | 33789 ft | 514 kts | 243° |
| 2026-05-05 21:39 | 56.94030 | -50.24943 | 33801 ft | 513 kts | 243° |
| 2026-05-05 21:40 | 56.91113 | -50.36830 | 33779 ft | 511 kts | 243° |
| 2026-05-05 21:40 | 56.88203 | -50.48687 | 33778 ft | 511 kts | 243° |
| 2026-05-05 21:41 | 56.85288 | -50.60541 | 33765 ft | 511 kts | 243° |
| 2026-05-05 21:41 | 56.82367 | -50.72364 | 33765 ft | 511 kts | 243° |
| 2026-05-05 21:42 | 56.79435 | -50.84169 | 33764 ft | 509 kts | 243° |
| 2026-05-05 21:42 | 56.76508 | -50.95891 | 33759 ft | 508 kts | 243° |
| 2026-05-05 21:43 | 56.73562 | -51.07624 | 33748 ft | 509 kts | 243° |
| 2026-05-05 21:43 | 56.70610 | -51.19318 | 33749 ft | 509 kts | 243° |
| 2026-05-05 21:44 | 56.67642 | -51.31014 | 33736 ft | 509 kts | 243° |
| 2026-05-05 21:44 | 56.64675 | -51.42654 | 33735 ft | 505 kts | 242° |
| 2026-05-05 21:45 | 56.61717 | -51.54197 | 33727 ft | 504 kts | 243° |
| 2026-05-05 21:45 | 56.58746 | -51.65714 | 33719 ft | 504 kts | 242° |
| 2026-05-05 21:46 | 56.55763 | -51.77215 | 33718 ft | 504 kts | 242° |
| 2026-05-05 21:46 | 56.52795 | -51.88615 | 33724 ft | 503 kts | 243° |
| 2026-05-05 21:47 | 56.49812 | -52.00016 | 33711 ft | 499 kts | 242° |
| 2026-05-05 21:47 | 56.46839 | -52.11326 | 33707 ft | 498 kts | 242° |
| 2026-05-05 21:48 | 56.43851 | -52.22616 | 33705 ft | 498 kts | 242° |
| 2026-05-05 21:48 | 56.40858 | -52.33885 | 33697 ft | 498 kts | 242° |
| 2026-05-05 21:49 | 56.37855 | -52.45133 | 33697 ft | 496 kts | 242° |
| 2026-05-05 21:49 | 56.34867 | -52.56264 | 33690 ft | 491 kts | 243° |
| 2026-05-05 21:50 | 56.32387 | -52.65462 | 33690 ft | 491 kts | 243° |
| 2026-05-05 21:50 | 56.29396 | -52.76506 | 33684 ft | 491 kts | 243° |
| 2026-05-05 21:51 | 56.26395 | -52.87535 | 33684 ft | 491 kts | 243° |
| 2026-05-05 21:51 | 56.23381 | -52.98553 | 33682 ft | 491 kts | 243° |
| 2026-05-05 21:52 | 56.18851 | -53.15034 | 33678 ft | 490 kts | 243° |
| 2026-05-05 21:53 | 56.15821 | -53.25992 | 33682 ft | 490 kts | 243° |
| 2026-05-05 21:53 | 56.12784 | -53.36919 | 33671 ft | 489 kts | 243° |
| 2026-05-05 21:54 | 56.09735 | -53.47834 | 33666 ft | 490 kts | 242° |
| 2026-05-05 21:54 | 56.06672 | -53.58746 | 33665 ft | 491 kts | 242° |
| 2026-05-05 21:55 | 56.03593 | -53.69662 | 33668 ft | 491 kts | 242° |
| 2026-05-05 21:55 | 56.00505 | -53.80561 | 33665 ft | 491 kts | 242° |
| 2026-05-05 21:56 | 55.97410 | -53.91431 | 33665 ft | 491 kts | 242° |
| 2026-05-05 21:56 | 55.94306 | -54.02288 | 33658 ft | 491 kts | 242° |
| 2026-05-05 21:57 | 55.91198 | -54.13107 | 33655 ft | 489 kts | 242° |
| 2026-05-05 21:57 | 55.88093 | -54.23864 | 33658 ft | 488 kts | 242° |
| 2026-05-05 21:58 | 55.84975 | -54.34615 | 33661 ft | 488 kts | 242° |
| 2026-05-05 21:58 | 55.81847 | -54.45349 | 33658 ft | 488 kts | 242° |
| 2026-05-05 21:59 | 55.78713 | -54.56054 | 33657 ft | 488 kts | 242° |
| 2026-05-05 21:59 | 55.75582 | -54.66706 | 33656 ft | 486 kts | 242° |
| 2026-05-05 22:00 | 55.72444 | -54.77332 | 33659 ft | 486 kts | 242° |
| 2026-05-05 22:00 | 55.69295 | -54.87945 | 33655 ft | 486 kts | 242° |
| 2026-05-05 22:01 | 55.66137 | -54.98543 | 33655 ft | 487 kts | 242° |
| 2026-05-05 22:01 | 55.62969 | -55.09125 | 33652 ft | 486 kts | 242° |
| 2026-05-05 22:02 | 55.59802 | -55.19657 | 33653 ft | 484 kts | 242° |
| 2026-05-05 22:02 | 55.56628 | -55.30163 | 33650 ft | 484 kts | 242° |
| 2026-05-05 22:03 | 55.53447 | -55.40646 | 33650 ft | 484 kts | 242° |
| 2026-05-05 22:03 | 55.50257 | -55.51113 | 33642 ft | 484 kts | 242° |
| 2026-05-05 22:04 | 55.47083 | -55.61477 | 33644 ft | 482 kts | 242° |
| 2026-05-05 22:04 | 55.43874 | -55.71916 | 33645 ft | 481 kts | 242° |
| 2026-05-05 22:05 | 55.40702 | -55.82192 | 33642 ft | 481 kts | 242° |
| 2026-05-05 22:05 | 55.37495 | -55.92533 | 33641 ft | 481 kts | 242° |
| 2026-05-05 22:06 | 55.34284 | -56.02843 | 33640 ft | 482 kts | 242° |
| 2026-05-05 22:06 | 55.31058 | -56.13153 | 33638 ft | 481 kts | 242° |
| 2026-05-05 22:07 | 55.27837 | -56.23407 | 33639 ft | 480 kts | 242° |
| 2026-05-05 22:07 | 55.24605 | -56.33649 | 33639 ft | 480 kts | 242° |
| 2026-05-05 22:08 | 55.21366 | -56.43872 | 33640 ft | 480 kts | 242° |
| 2026-05-05 22:08 | 55.18116 | -56.54088 | 33631 ft | 480 kts | 242° |
| 2026-05-05 22:09 | 55.14887 | -56.64189 | 33634 ft | 473 kts | 242° |
| 2026-05-05 22:09 | 55.11678 | -56.74186 | 33635 ft | 471 kts | 242° |
| 2026-05-05 22:10 | 55.08468 | -56.84149 | 33631 ft | 471 kts | 242° |
| 2026-05-05 22:10 | 55.05245 | -56.94112 | 33633 ft | 471 kts | 242° |
| 2026-05-05 22:11 | 55.02389 | -57.04365 | 33623 ft | 469 kts | 249° |
| 2026-05-05 22:11 | 54.99988 | -57.14834 | 33634 ft | 463 kts | 250° |
| 2026-05-05 22:12 | 54.97660 | -57.25294 | 33630 ft | 463 kts | 250° |
| 2026-05-05 22:12 | 54.95328 | -57.35729 | 33626 ft | 463 kts | 250° |
| 2026-05-05 22:13 | 54.92973 | -57.46155 | 33628 ft | 463 kts | 250° |
| 2026-05-05 22:13 | 54.90606 | -57.56559 | 33630 ft | 463 kts | 250° |
| 2026-05-05 22:14 | 54.88230 | -57.66940 | 33628 ft | 460 kts | 250° |
| 2026-05-05 22:14 | 54.85864 | -57.77234 | 33622 ft | 458 kts | 250° |
| 2026-05-05 22:15 | 54.83491 | -57.87511 | 33625 ft | 458 kts | 250° |
| 2026-05-05 22:15 | 54.81128 | -57.97700 | 33615 ft | 458 kts | 250° |
| 2026-05-05 22:16 | 54.78739 | -58.07946 | 33616 ft | 459 kts | 249° |
| 2026-05-05 22:16 | 54.76320 | -58.18273 | 33585 ft | 460 kts | 250° |
| 2026-05-05 22:17 | 54.73933 | -58.28406 | 33614 ft | 455 kts | 250° |
| 2026-05-05 22:17 | 54.71544 | -58.38509 | 33608 ft | 454 kts | 250° |
| 2026-05-05 22:18 | 54.69146 | -58.48604 | 33608 ft | 454 kts | 249° |
| 2026-05-05 22:18 | 54.66737 | -58.58694 | 33608 ft | 454 kts | 249° |
| 2026-05-05 22:19 | 54.64323 | -58.68760 | 33608 ft | 454 kts | 249° |
| 2026-05-05 22:19 | 54.61898 | -58.78822 | 33606 ft | 454 kts | 249° |
| 2026-05-05 22:20 | 54.59466 | -58.88869 | 33606 ft | 454 kts | 249° |
| 2026-05-05 22:20 | 54.57024 | -58.98914 | 33604 ft | 454 kts | 249° |
| 2026-05-05 22:21 | 54.54571 | -59.08960 | 33609 ft | 455 kts | 249° |
| 2026-05-05 22:21 | 54.52106 | -59.19000 | 33607 ft | 456 kts | 249° |
| 2026-05-05 22:22 | 54.49630 | -59.29043 | 33584 ft | 456 kts | 249° |
| 2026-05-05 22:22 | 54.47168 | -59.38973 | 33612 ft | 446 kts | 249° |
| 2026-05-05 22:23 | 54.44740 | -59.48731 | 33611 ft | 443 kts | 249° |
| 2026-05-05 22:23 | 54.42312 | -59.58453 | 33610 ft | 443 kts | 249° |
| 2026-05-05 22:24 | 54.39872 | -59.68175 | 33608 ft | 443 kts | 248° |
| 2026-05-05 22:24 | 54.37425 | -59.77882 | 33612 ft | 443 kts | 248° |
| 2026-05-05 22:25 | 54.34972 | -59.87571 | 33601 ft | 442 kts | 248° |
| 2026-05-05 22:25 | 54.32546 | -59.97115 | 33604 ft | 438 kts | 248° |
| 2026-05-05 22:26 | 54.30105 | -60.06672 | 33602 ft | 438 kts | 247° |
| 2026-05-05 22:26 | 54.27657 | -60.16217 | 33601 ft | 438 kts | 247° |
| 2026-05-05 22:27 | 54.25200 | -60.25758 | 33597 ft | 438 kts | 247° |
| 2026-05-05 22:27 | 54.22734 | -60.35290 | 33596 ft | 438 kts | 247° |
| 2026-05-05 22:28 | 54.20261 | -60.44808 | 33594 ft | 439 kts | 247° |
| 2026-05-05 22:28 | 54.17773 | -60.54347 | 33595 ft | 440 kts | 247° |
| 2026-05-05 22:29 | 54.15273 | -60.63889 | 33586 ft | 440 kts | 247° |
| 2026-05-05 22:29 | 54.12771 | -60.73403 | 33586 ft | 440 kts | 247° |
| 2026-05-05 22:30 | 54.10258 | -60.82917 | 33588 ft | 440 kts | 246° |
| 2026-05-05 22:30 | 54.07733 | -60.92433 | 33583 ft | 441 kts | 246° |
| 2026-05-05 22:31 | 54.05200 | -61.01938 | 33582 ft | 441 kts | 246° |
| 2026-05-05 22:31 | 54.02659 | -61.11437 | 33579 ft | 441 kts | 246° |
| 2026-05-05 22:32 | 54.00109 | -61.20928 | 33578 ft | 441 kts | 246° |
| 2026-05-05 22:32 | 53.97566 | -61.30356 | 33573 ft | 441 kts | 246° |
| 2026-05-05 22:33 | 53.95000 | -61.39829 | 33575 ft | 441 kts | 246° |
| 2026-05-05 22:33 | 53.92427 | -61.49290 | 33557 ft | 441 kts | 246° |
| 2026-05-05 22:34 | 53.89843 | -61.58748 | 33569 ft | 442 kts | 246° |
| 2026-05-05 22:34 | 53.87249 | -61.68211 | 33576 ft | 443 kts | 246° |
| 2026-05-05 22:35 | 53.84643 | -61.77676 | 33567 ft | 444 kts | 246° |
| 2026-05-05 22:35 | 53.82026 | -61.87138 | 33567 ft | 444 kts | 246° |
| 2026-05-05 22:36 | 53.79402 | -61.96590 | 33571 ft | 444 kts | 245° |
| 2026-05-05 22:36 | 53.77215 | -62.04434 | 33559 ft | 443 kts | 246° |
| 2026-05-05 22:37 | 53.74591 | -62.13813 | 33566 ft | 440 kts | 246° |
| 2026-05-05 22:37 | 53.71972 | -62.23140 | 33565 ft | 440 kts | 246° |
| 2026-05-05 22:38 | 53.69345 | -62.32460 | 33561 ft | 440 kts | 246° |
| 2026-05-05 22:38 | 53.66707 | -62.41776 | 33560 ft | 440 kts | 245° |
| 2026-05-05 22:39 | 53.64065 | -62.51074 | 33563 ft | 440 kts | 245° |
| 2026-05-05 22:39 | 53.61421 | -62.60338 | 33558 ft | 437 kts | 246° |
| 2026-05-05 22:40 | 53.58788 | -62.69530 | 33550 ft | 435 kts | 245° |
| 2026-05-05 22:40 | 53.56150 | -62.78701 | 33557 ft | 435 kts | 245° |
| 2026-05-05 22:41 | 53.53505 | -62.87864 | 33557 ft | 435 kts | 245° |
| 2026-05-05 22:41 | 53.50853 | -62.97015 | 33574 ft | 435 kts | 245° |
| 2026-05-05 22:42 | 53.48194 | -63.06152 | 33565 ft | 435 kts | 245° |
| 2026-05-05 22:42 | 53.45548 | -63.15208 | 33548 ft | 429 kts | 245° |
| 2026-05-05 22:43 | 53.42923 | -63.24161 | 33567 ft | 427 kts | 245° |
| 2026-05-05 22:43 | 53.40311 | -63.33040 | 33564 ft | 428 kts | 244° |
| 2026-05-05 22:44 | 53.37689 | -63.41915 | 33555 ft | 421 kts | 244° |
| 2026-05-05 22:44 | 53.35099 | -63.50644 | 33550 ft | 417 kts | 244° |
| 2026-05-05 22:45 | 53.32517 | -63.59335 | 33529 ft | 417 kts | 244° |
| 2026-05-05 22:45 | 53.29930 | -63.67988 | 33550 ft | 410 kts | 244° |
| 2026-05-05 22:46 | 53.27393 | -63.76444 | 33536 ft | 409 kts | 244° |
| 2026-05-05 22:46 | 53.24839 | -63.84934 | 33549 ft | 409 kts | 244° |
| 2026-05-05 22:47 | 53.22276 | -63.93425 | 33552 ft | 410 kts | 244° |
| 2026-05-05 22:47 | 53.19705 | -64.01910 | 33543 ft | 410 kts | 244° |
| 2026-05-05 22:48 | 53.17130 | -64.10378 | 33542 ft | 409 kts | 244° |
| 2026-05-05 22:48 | 53.14552 | -64.18828 | 33543 ft | 409 kts | 243° |
| 2026-05-05 22:49 | 53.11971 | -64.27256 | 33534 ft | 408 kts | 243° |
| 2026-05-05 22:49 | 53.09383 | -64.35677 | 33534 ft | 408 kts | 243° |
| 2026-05-05 22:50 | 53.06793 | -64.44079 | 33536 ft | 408 kts | 243° |
| 2026-05-05 22:50 | 53.04197 | -64.52467 | 33535 ft | 408 kts | 243° |
| 2026-05-05 22:51 | 53.01597 | -64.60842 | 33527 ft | 407 kts | 243° |
| 2026-05-05 22:51 | 52.99007 | -64.69155 | 33536 ft | 404 kts | 243° |
| 2026-05-05 22:52 | 52.96420 | -64.77429 | 33529 ft | 404 kts | 243° |
| 2026-05-05 22:52 | 52.93843 | -64.85644 | 33532 ft | 404 kts | 243° |
| 2026-05-05 22:53 | 52.91242 | -64.93904 | 33529 ft | 404 kts | 242° |
| 2026-05-05 22:53 | 52.88635 | -65.02163 | 33533 ft | 405 kts | 242° |
| 2026-05-05 22:54 | 52.86017 | -65.10424 | 33524 ft | 405 kts | 241° |
| 2026-05-05 22:54 | 52.83398 | -65.18658 | 33528 ft | 404 kts | 241° |
| 2026-05-05 22:55 | 52.80779 | -65.26866 | 33532 ft | 404 kts | 241° |
| 2026-05-05 22:55 | 52.78152 | -65.35069 | 33520 ft | 404 kts | 241° |
| 2026-05-05 22:56 | 52.75517 | -65.43272 | 33523 ft | 404 kts | 241° |
| 2026-05-05 22:56 | 52.72878 | -65.51458 | 33517 ft | 404 kts | 241° |
| 2026-05-05 22:57 | 52.70237 | -65.59627 | 33516 ft | 404 kts | 241° |
| 2026-05-05 22:57 | 52.67588 | -65.67791 | 33516 ft | 404 kts | 241° |
| 2026-05-05 22:58 | 52.64934 | -65.75942 | 33513 ft | 404 kts | 241° |
| 2026-05-05 22:58 | 52.62274 | -65.84084 | 33520 ft | 404 kts | 240° |
| 2026-05-05 22:59 | 52.59607 | -65.92223 | 33508 ft | 404 kts | 240° |
| 2026-05-05 22:59 | 52.56953 | -66.00297 | 33511 ft | 404 kts | 240° |
| 2026-05-05 23:00 | 52.52944 | -66.12438 | 33509 ft | 401 kts | 240° |
| 2026-05-05 23:00 | 52.50280 | -66.20475 | 33514 ft | 400 kts | 240° |
| 2026-05-05 23:01 | 52.47616 | -66.28485 | 33504 ft | 400 kts | 240° |
| 2026-05-05 23:01 | 52.44942 | -66.36501 | 33503 ft | 400 kts | 240° |
| 2026-05-05 23:02 | 52.42264 | -66.44499 | 33506 ft | 400 kts | 240° |
| 2026-05-05 23:02 | 52.39582 | -66.52485 | 33503 ft | 400 kts | 239° |
| 2026-05-05 23:03 | 52.36895 | -66.60458 | 33501 ft | 399 kts | 239° |
| 2026-05-05 23:03 | 52.34211 | -66.68401 | 33501 ft | 399 kts | 239° |
| 2026-05-05 23:04 | 52.31521 | -66.76335 | 33500 ft | 399 kts | 239° |
| 2026-05-05 23:04 | 52.28823 | -66.84266 | 33498 ft | 399 kts | 239° |
| 2026-05-05 23:05 | 52.26122 | -66.92183 | 33494 ft | 399 kts | 239° |
| 2026-05-05 23:05 | 52.23415 | -67.00089 | 33494 ft | 399 kts | 239° |
| 2026-05-05 23:06 | 52.20710 | -67.07968 | 33490 ft | 397 kts | 238° |
| 2026-05-05 23:06 | 52.18015 | -67.15792 | 33485 ft | 396 kts | 238° |
| 2026-05-05 23:07 | 52.15315 | -67.23602 | 33497 ft | 396 kts | 238° |
| 2026-05-05 23:07 | 52.12611 | -67.31402 | 33542 ft | 396 kts | 238° |
| 2026-05-05 23:08 | 52.09890 | -67.39230 | 33480 ft | 399 kts | 238° |
| 2026-05-05 23:08 | 52.07145 | -67.47097 | 33477 ft | 400 kts | 238° |
| 2026-05-05 23:09 | 52.04415 | -67.54899 | 33480 ft | 400 kts | 238° |
| 2026-05-05 23:09 | 52.01666 | -67.62732 | 33477 ft | 399 kts | 238° |
| 2026-05-05 23:10 | 51.98910 | -67.70559 | 33475 ft | 399 kts | 238° |
| 2026-05-05 23:10 | 51.96149 | -67.78376 | 33473 ft | 399 kts | 237° |
| 2026-05-05 23:11 | 51.93382 | -67.86185 | 33474 ft | 399 kts | 237° |
| 2026-05-05 23:11 | 51.90611 | -67.93981 | 33477 ft | 400 kts | 237° |
| 2026-05-05 23:12 | 51.87832 | -68.01775 | 33471 ft | 400 kts | 237° |
| 2026-05-05 23:12 | 51.85045 | -68.09568 | 33483 ft | 401 kts | 237° |
| 2026-05-05 23:13 | 51.82230 | -68.17413 | 33469 ft | 404 kts | 237° |
| 2026-05-05 23:13 | 51.79401 | -68.25279 | 33468 ft | 404 kts | 237° |
| 2026-05-05 23:14 | 51.76573 | -68.33117 | 33471 ft | 404 kts | 237° |
| 2026-05-05 23:14 | 51.73735 | -68.40957 | 33473 ft | 404 kts | 237° |
| 2026-05-05 23:15 | 51.70894 | -68.48779 | 33471 ft | 404 kts | 237° |
| 2026-05-05 23:15 | 51.68049 | -68.56588 | 33470 ft | 404 kts | 237° |
| 2026-05-05 23:16 | 51.65200 | -68.64385 | 33467 ft | 404 kts | 237° |
| 2026-05-05 23:16 | 51.62344 | -68.72176 | 33467 ft | 404 kts | 237° |
| 2026-05-05 23:17 | 51.59485 | -68.79950 | 33465 ft | 404 kts | 237° |
| 2026-05-05 23:17 | 51.56599 | -68.87774 | 33466 ft | 409 kts | 237° |
| 2026-05-05 23:18 | 51.53705 | -68.95596 | 33465 ft | 411 kts | 237° |
| 2026-05-05 23:18 | 51.50781 | -69.03478 | 33466 ft | 410 kts | 237° |
| 2026-05-05 23:19 | 51.47854 | -69.11344 | 33466 ft | 411 kts | 236° |
| 2026-05-05 23:19 | 51.44922 | -69.19195 | 33465 ft | 411 kts | 236° |
| 2026-05-05 23:20 | 51.41981 | -69.27050 | 33463 ft | 411 kts | 236° |
| 2026-05-05 23:20 | 51.39038 | -69.34883 | 33463 ft | 411 kts | 236° |
| 2026-05-05 23:21 | 51.36086 | -69.42716 | 33459 ft | 411 kts | 236° |
| 2026-05-05 23:21 | 51.32970 | -69.50344 | 33465 ft | 409 kts | 230° |
| 2026-05-05 23:22 | 51.29237 | -69.57219 | 33472 ft | 412 kts | 227° |
| 2026-05-05 23:22 | 51.25317 | -69.64020 | 33470 ft | 418 kts | 227° |
| 2026-05-05 23:23 | 51.21358 | -69.70818 | 33466 ft | 418 kts | 227° |
| 2026-05-05 23:23 | 51.17419 | -69.77594 | 33476 ft | 416 kts | 227° |
| 2026-05-05 23:24 | 51.14152 | -69.83219 | 33479 ft | 416 kts | 227° |
| 2026-05-05 23:24 | 51.10220 | -69.89978 | 33481 ft | 416 kts | 227° |
| 2026-05-05 23:25 | 51.06284 | -69.96725 | 33484 ft | 416 kts | 227° |
| 2026-05-05 23:25 | 51.02342 | -70.03465 | 33483 ft | 416 kts | 227° |
| 2026-05-05 23:26 | 50.98411 | -70.10166 | 33490 ft | 414 kts | 227° |
| 2026-05-05 23:26 | 50.94488 | -70.16839 | 33494 ft | 413 kts | 227° |
| 2026-05-05 23:27 | 50.90561 | -70.23498 | 33493 ft | 414 kts | 227° |
| 2026-05-05 23:27 | 50.86627 | -70.30150 | 33500 ft | 414 kts | 227° |
| 2026-05-05 23:28 | 50.82695 | -70.36780 | 33509 ft | 413 kts | 227° |
| 2026-05-05 23:28 | 50.78767 | -70.43388 | 33512 ft | 412 kts | 227° |
| 2026-05-05 23:29 | 50.74837 | -70.49980 | 33493 ft | 412 kts | 227° |
| 2026-05-05 23:29 | 50.70931 | -70.56517 | 33516 ft | 412 kts | 227° |
| 2026-05-05 23:30 | 50.66993 | -70.63091 | 33519 ft | 412 kts | 227° |
| 2026-05-05 23:30 | 50.63061 | -70.69636 | 33512 ft | 409 kts | 227° |
| 2026-05-05 23:31 | 50.59157 | -70.76118 | 33521 ft | 407 kts | 227° |
| 2026-05-05 23:31 | 50.55258 | -70.82577 | 33521 ft | 407 kts | 227° |
| 2026-05-05 23:32 | 50.51353 | -70.89029 | 33520 ft | 407 kts | 227° |
| 2026-05-05 23:32 | 50.47440 | -70.95476 | 33525 ft | 407 kts | 227° |
| 2026-05-05 23:33 | 50.43535 | -71.01893 | 33525 ft | 405 kts | 227° |
| 2026-05-05 23:33 | 50.39641 | -71.08276 | 33532 ft | 405 kts | 227° |
| 2026-05-05 23:34 | 50.35750 | -71.14640 | 33535 ft | 405 kts | 227° |
| 2026-05-05 23:34 | 50.31848 | -71.21003 | 33534 ft | 405 kts | 227° |
| 2026-05-05 23:35 | 50.27949 | -71.27348 | 33553 ft | 405 kts | 227° |
| 2026-05-05 23:35 | 50.24015 | -71.33734 | 33541 ft | 410 kts | 226° |
| 2026-05-05 23:36 | 50.20044 | -71.40160 | 33549 ft | 411 kts | 226° |
| 2026-05-05 23:36 | 50.16068 | -71.46579 | 33531 ft | 411 kts | 226° |
| 2026-05-05 23:37 | 50.12091 | -71.52983 | 33553 ft | 411 kts | 226° |
| 2026-05-05 23:37 | 50.08112 | -71.59374 | 33533 ft | 409 kts | 226° |
| 2026-05-05 23:38 | 50.04176 | -71.65679 | 33550 ft | 404 kts | 226° |
| 2026-05-05 23:38 | 50.00257 | -71.71944 | 33550 ft | 404 kts | 226° |
| 2026-05-05 23:39 | 49.96361 | -71.78157 | 33555 ft | 404 kts | 226° |
| 2026-05-05 23:39 | 49.92436 | -71.84399 | 33554 ft | 404 kts | 226° |
| 2026-05-05 23:40 | 49.88505 | -71.90635 | 33553 ft | 404 kts | 226° |
| 2026-05-05 23:40 | 49.84570 | -71.96862 | 33554 ft | 404 kts | 227° |
| 2026-05-05 23:41 | 49.80631 | -72.03080 | 33559 ft | 405 kts | 226° |
| 2026-05-05 23:41 | 49.76688 | -72.09292 | 33557 ft | 405 kts | 226° |
| 2026-05-05 23:42 | 49.72719 | -72.15527 | 33567 ft | 411 kts | 226° |
| 2026-05-05 23:42 | 49.68668 | -72.21874 | 33559 ft | 416 kts | 226° |
| 2026-05-05 23:43 | 49.64597 | -72.28235 | 33562 ft | 416 kts | 226° |
| 2026-05-05 23:43 | 49.60526 | -72.34581 | 33566 ft | 416 kts | 226° |
| 2026-05-05 23:44 | 49.56450 | -72.40918 | 33567 ft | 416 kts | 226° |
| 2026-05-05 23:44 | 49.52370 | -72.47248 | 33556 ft | 416 kts | 226° |
| 2026-05-05 23:45 | 49.48309 | -72.53531 | 33568 ft | 413 kts | 226° |
| 2026-05-05 23:45 | 49.44253 | -72.59791 | 33573 ft | 413 kts | 226° |
| 2026-05-05 23:46 | 49.40221 | -72.66000 | 33577 ft | 413 kts | 226° |
| 2026-05-05 23:46 | 49.36156 | -72.72242 | 33575 ft | 413 kts | 226° |
| 2026-05-05 23:47 | 49.32098 | -72.78458 | 33577 ft | 411 kts | 227° |
| 2026-05-05 23:47 | 49.28039 | -72.84661 | 33580 ft | 408 kts | 226° |
| 2026-05-05 23:48 | 49.24045 | -72.90751 | 33585 ft | 409 kts | 226° |
| 2026-05-05 23:48 | 49.19976 | -72.96942 | 33582 ft | 418 kts | 226° |
| 2026-05-05 23:49 | 49.15815 | -73.03208 | 33561 ft | 421 kts | 226° |
| 2026-05-05 23:49 | 49.11545 | -73.09314 | 33581 ft | 420 kts | 225° |
| 2026-05-05 23:50 | 49.07258 | -73.15375 | 33585 ft | 420 kts | 225° |
| 2026-05-05 23:50 | 49.02984 | -73.21446 | 33584 ft | 420 kts | 225° |
| 2026-05-05 23:51 | 48.98714 | -73.27523 | 33588 ft | 420 kts | 225° |
| 2026-05-05 23:51 | 48.94452 | -73.33580 | 33588 ft | 416 kts | 225° |
| 2026-05-05 23:52 | 48.90244 | -73.39545 | 33591 ft | 412 kts | 225° |
| 2026-05-05 23:52 | 48.86048 | -73.45481 | 33592 ft | 412 kts | 225° |
| 2026-05-05 23:53 | 48.81846 | -73.51409 | 33594 ft | 413 kts | 225° |
| 2026-05-05 23:53 | 48.77637 | -73.57332 | 33591 ft | 412 kts | 226° |
| 2026-05-05 23:54 | 48.73446 | -73.63214 | 33599 ft | 409 kts | 226° |
| 2026-05-05 23:54 | 48.69267 | -73.69068 | 33600 ft | 409 kts | 226° |
| 2026-05-05 23:55 | 48.65095 | -73.74900 | 33601 ft | 415 kts | 226° |
| 2026-05-05 23:55 | 48.60796 | -73.80896 | 33598 ft | 419 kts | 225° |
| 2026-05-05 23:56 | 48.56527 | -73.86826 | 33603 ft | 414 kts | 226° |
| 2026-05-05 23:56 | 48.52333 | -73.92640 | 33603 ft | 411 kts | 226° |
| 2026-05-05 23:57 | 48.48123 | -73.98469 | 33604 ft | 411 kts | 226° |
| 2026-05-05 23:57 | 48.43914 | -74.04283 | 33603 ft | 411 kts | 226° |
| 2026-05-05 23:58 | 48.39698 | -74.10089 | 33596 ft | 409 kts | 226° |
| 2026-05-05 23:58 | 48.35526 | -74.15818 | 33606 ft | 404 kts | 226° |
| 2026-05-05 23:59 | 48.31378 | -74.21508 | 33605 ft | 403 kts | 226° |
| 2026-05-05 23:59 | 48.27231 | -74.27183 | 33605 ft | 404 kts | 226° |
| 2026-05-06 00:00 | 48.23078 | -74.32853 | 33607 ft | 403 kts | 226° |
| 2026-05-06 00:00 | 48.18944 | -74.38475 | 33613 ft | 398 kts | 226° |
| 2026-05-06 00:01 | 48.14856 | -74.44028 | 33597 ft | 396 kts | 226° |
| 2026-05-06 00:01 | 48.10800 | -74.49531 | 33621 ft | 398 kts | 226° |
| 2026-05-06 00:02 | 48.06653 | -74.55147 | 33608 ft | 404 kts | 226° |
| 2026-05-06 00:02 | 48.02483 | -74.60772 | 33588 ft | 402 kts | 226° |
| 2026-05-06 00:03 | 47.98372 | -74.66296 | 33620 ft | 395 kts | 226° |
| 2026-05-06 00:03 | 47.94295 | -74.71774 | 33605 ft | 394 kts | 226° |
| 2026-05-06 00:04 | 47.90215 | -74.77246 | 33621 ft | 395 kts | 226° |
| 2026-05-06 00:04 | 47.86131 | -74.82711 | 33619 ft | 394 kts | 226° |
| 2026-05-06 00:05 | 47.80002 | -74.90888 | 33610 ft | 394 kts | 226° |
| 2026-05-06 00:06 | 47.75914 | -74.96325 | 33612 ft | 395 kts | 226° |
| 2026-05-06 00:06 | 47.71822 | -75.01755 | 33618 ft | 395 kts | 226° |
| 2026-05-06 00:07 | 47.67724 | -75.07182 | 33615 ft | 395 kts | 226° |
| 2026-05-06 00:07 | 47.63661 | -75.12546 | 33632 ft | 386 kts | 226° |
| 2026-05-06 00:08 | 47.59669 | -75.17805 | 33636 ft | 383 kts | 226° |
| 2026-05-06 00:08 | 47.55678 | -75.23062 | 33653 ft | 385 kts | 226° |
| 2026-05-06 00:09 | 47.51658 | -75.28351 | 33637 ft | 392 kts | 226° |
| 2026-05-06 00:09 | 47.47580 | -75.33693 | 33624 ft | 390 kts | 226° |
| 2026-05-06 00:10 | 47.43543 | -75.38963 | 33649 ft | 385 kts | 226° |
| 2026-05-06 00:10 | 47.39526 | -75.44204 | 33648 ft | 385 kts | 226° |
| 2026-05-06 00:11 | 47.35510 | -75.49433 | 33658 ft | 385 kts | 226° |
| 2026-05-06 00:11 | 47.31494 | -75.54650 | 33652 ft | 385 kts | 226° |
| 2026-05-06 00:12 | 47.27496 | -75.59829 | 33659 ft | 380 kts | 226° |
| 2026-05-06 00:12 | 47.23540 | -75.64943 | 33662 ft | 378 kts | 226° |
| 2026-05-06 00:13 | 47.19591 | -75.70045 | 33663 ft | 378 kts | 226° |
| 2026-05-06 00:13 | 47.16307 | -75.74280 | 33666 ft | 378 kts | 226° |
| 2026-05-06 00:14 | 47.12353 | -75.79368 | 33629 ft | 378 kts | 226° |
| 2026-05-06 00:14 | 47.08398 | -75.84441 | 33668 ft | 377 kts | 226° |
| 2026-05-06 00:15 | 47.04455 | -75.89490 | 33670 ft | 376 kts | 226° |
| 2026-05-06 00:15 | 47.00509 | -75.94531 | 33689 ft | 377 kts | 226° |
| 2026-05-06 00:16 | 46.96533 | -75.99607 | 33679 ft | 380 kts | 226° |
| 2026-05-06 00:16 | 46.92547 | -76.04681 | 33680 ft | 379 kts | 226° |
| 2026-05-06 00:17 | 46.88571 | -76.09729 | 33690 ft | 378 kts | 226° |
| 2026-05-06 00:17 | 46.84597 | -76.14769 | 33691 ft | 378 kts | 226° |
| 2026-05-06 00:18 | 46.80621 | -76.19800 | 33701 ft | 378 kts | 226° |
| 2026-05-06 00:18 | 46.76642 | -76.24822 | 33702 ft | 378 kts | 226° |
| 2026-05-06 00:19 | 46.72659 | -76.29841 | 33709 ft | 378 kts | 226° |
| 2026-05-06 00:19 | 46.68699 | -76.34821 | 33720 ft | 379 kts | 226° |
| 2026-05-06 00:20 | 46.64710 | -76.39823 | 33713 ft | 378 kts | 226° |
| 2026-05-06 00:20 | 46.60723 | -76.44819 | 33711 ft | 379 kts | 226° |
| 2026-05-06 00:21 | 46.56731 | -76.49812 | 33702 ft | 379 kts | 226° |
| 2026-05-06 00:21 | 46.52733 | -76.54798 | 33729 ft | 378 kts | 226° |
| 2026-05-06 00:22 | 46.48737 | -76.59772 | 33732 ft | 378 kts | 226° |
| 2026-05-06 00:22 | 46.44735 | -76.64744 | 33728 ft | 379 kts | 226° |
| 2026-05-06 00:23 | 46.40720 | -76.69725 | 33733 ft | 380 kts | 226° |
| 2026-05-06 00:23 | 46.36702 | -76.74697 | 33730 ft | 380 kts | 226° |
| 2026-05-06 00:24 | 46.32681 | -76.79660 | 33739 ft | 380 kts | 226° |
| 2026-05-06 00:24 | 46.28659 | -76.84619 | 33745 ft | 380 kts | 226° |
| 2026-05-06 00:25 | 46.24630 | -76.89575 | 33746 ft | 380 kts | 226° |
| 2026-05-06 00:25 | 46.20625 | -76.94492 | 33727 ft | 380 kts | 226° |
| 2026-05-06 00:26 | 46.16599 | -76.99423 | 33757 ft | 379 kts | 226° |
| 2026-05-06 00:26 | 46.12577 | -77.04341 | 33764 ft | 379 kts | 226° |
| 2026-05-06 00:27 | 46.08547 | -77.09259 | 33763 ft | 379 kts | 226° |
| 2026-05-06 00:27 | 46.04520 | -77.14165 | 33768 ft | 379 kts | 226° |
| 2026-05-06 00:28 | 46.00490 | -77.19063 | 33776 ft | 379 kts | 226° |
| 2026-05-06 00:28 | 45.96453 | -77.23960 | 33774 ft | 379 kts | 226° |
| 2026-05-06 00:29 | 45.92417 | -77.28845 | 33782 ft | 381 kts | 226° |
| 2026-05-06 00:29 | 45.88351 | -77.33761 | 33777 ft | 383 kts | 226° |
| 2026-05-06 00:30 | 45.84276 | -77.38673 | 33779 ft | 382 kts | 226° |
| 2026-05-06 00:30 | 45.80206 | -77.43568 | 33779 ft | 381 kts | 226° |
| 2026-05-06 00:31 | 45.76146 | -77.48446 | 33781 ft | 381 kts | 226° |
| 2026-05-06 00:31 | 45.72085 | -77.53316 | 33786 ft | 381 kts | 226° |
| 2026-05-06 00:32 | 45.68023 | -77.58176 | 33762 ft | 380 kts | 226° |
| 2026-05-06 00:32 | 45.64175 | -77.63286 | 33790 ft | 376 kts | 229° |
| 2026-05-06 00:33 | 45.60468 | -77.68559 | 33791 ft | 375 kts | 230° |
| 2026-05-06 00:33 | 45.56786 | -77.73847 | 33796 ft | 375 kts | 230° |
| 2026-05-06 00:34 | 45.53101 | -77.79126 | 33799 ft | 375 kts | 230° |
| 2026-05-06 00:34 | 45.49408 | -77.84394 | 33805 ft | 376 kts | 230° |
| 2026-05-06 00:35 | 45.45707 | -77.89657 | 33805 ft | 376 kts | 230° |
| 2026-05-06 00:35 | 45.42019 | -77.94889 | 33810 ft | 376 kts | 230° |
| 2026-05-06 00:36 | 45.38308 | -78.00145 | 33812 ft | 376 kts | 230° |
| 2026-05-06 00:36 | 45.34595 | -78.05395 | 33821 ft | 377 kts | 230° |
| 2026-05-06 00:37 | 45.30852 | -78.10679 | 33825 ft | 384 kts | 230° |
| 2026-05-06 00:37 | 45.27056 | -78.16032 | 33823 ft | 385 kts | 230° |
| 2026-05-06 00:38 | 45.23251 | -78.21377 | 33830 ft | 385 kts | 230° |
| 2026-05-06 00:38 | 45.19444 | -78.26714 | 33831 ft | 385 kts | 230° |
| 2026-05-06 00:39 | 45.15631 | -78.32052 | 33850 ft | 387 kts | 230° |
| 2026-05-06 00:39 | 45.11766 | -78.37459 | 33835 ft | 392 kts | 230° |
| 2026-05-06 00:40 | 45.07874 | -78.42883 | 33853 ft | 392 kts | 229° |
| 2026-05-06 00:40 | 45.04021 | -78.48238 | 33844 ft | 386 kts | 229° |
| 2026-05-06 00:41 | 45.00201 | -78.53539 | 33846 ft | 384 kts | 229° |